Aviation Digital Data Service (ADDS)

Output produced by METARs form (1328 UTC 26 May 2018)
found at http://www.aviationweather.gov/adds/metars/
 
TAF CYXX 261138Z 2612/2712 VRB03KT P6SM SCT020 BKN080 
     TEMPO 2612/2613 BKN020 
     FM261300 22005KT P6SM BKN020 
     TEMPO 2613/2620 BKN030 
     BECMG 2615/2617 22010KT 
     FM262000 20012KT P6SM BKN030 
     FM262300 22010KT P6SM SCT050 BKN100 
     BECMG 2704/2706 VRB03KT RMK NXT FCST BY 261800Z
       
TAF CYAH 261041Z 2611/2621 04006KT P6SM SCT020 BKN040 
     TEMPO 2611/2615 BKN020 OVC040 
     FM261500 06008KT P6SM SCT020 
     TEMPO 2615/2618 BKN020 
     FM261800 08008KT P6SM FEW025 RMK FCST BASED ON AUTO OBS. NXT FCST BY 261800Z
       
TAF AMD CYAM 260941Z 2609/2620 VRB03KT 6SM BR SCT005 BKN050 
     TEMPO 2609/2614 1/2SM FG BKN005 
     PROB30 2609/2612 2SM TSRA BR BKN050CB 
     FM261400 VRB03KT P6SM SCT010 BKN030 
     TEMPO 2614/2617 BKN010 
     FM261800 10005KT P6SM BKN040 RMK NXT FCST BY 261400Z
       
TAF AMD CYAT 261123Z 2611/2619 09012KT P6SM FEW015 SCT250 
     TEMPO 2611/2613 BKN015 RMK FCST BASED ON AUTO OBS. NXT FCST BY 261500Z
       
TAF AMD CYAY 261007Z 2610/2620 06009KT 4SM -RASN OVC004 
     TEMPO 2610/2613 P6SM NSW OVC010 
     FM261300 08015G25KT 2SM -SN BR BKN006 OVC010 
     TEMPO 2613/2620 6SM -RASN SCT006 OVC010 RMK FCST BASED ON AUTO OBS. NXT FCST BY 261400Z
       
TAF CYBC 260738Z 2608/2620 VRB03KT P6SM SKC 
     BECMG 2610/2612 31010G20KT RMK FCST BASED ON AUTO OBS. NXT FCST BY 261400Z
       
TAF CYBG 261130Z 2612/2712 30012KT P6SM SCT250 
     BECMG 2616/2618 35005KT 
     BECMG 2621/2623 07008KT RMK NXT FCST BY 261800Z
       
TAF AMD CYBK 261218Z 2612/2624 14020KT P6SM -FZRA SCT008 OVC030 
     TEMPO 2612/2620 2SM -FZRA -PL BR OVC008 
     FM262000 16012KT P6SM OVC020 
     TEMPO 2620/2624 5SM -DZ BR OVC008 RMK NXT FCST BY 261800Z
       
TAF CYBN 261130Z 2612/2624 VRB03KT P6SM SCT060 BKN220 
     FM261900 08009KT P6SM BKN060 
     TEMPO 2619/2624 4SM -SHRA BR BKN040 
     PROB40 2619/2624 VRB20G30KT 1SM +TSRA BR BKN006 BKN040CB RMK FCST BASED ON AUTO OBS. NXT FCST BY 261800Z
       
TAF CYBR 261151Z 2612/2624 29008KT P6SM FEW004 SCT080 
     TEMPO 2612/2614 2SM BR 
     PROB30 2612/2614 1SM BR BKN004 
     FM261400 30012KT P6SM SCT006 BKN012 
     TEMPO 2614/2618 BKN025 
     FM261800 32015KT P6SM SCT030 RMK NXT FCST BY 261800Z
       
TAF CYBW 261138Z 2612/2624 30010KT P6SM BKN120 
     BECMG 2612/2614 33015G25KT 
     FM261700 02012KT P6SM FEW050 
     FM262000 15010KT P6SM SCT050 
     TEMPO 2622/2624 P6SM VCTS SCT050CB RMK FCST BASED ON AUTO OBS. NXT FCST BY 261800Z
       
TAF CYBX 260738Z 2608/2620 07015G25KT 3SM -SN BR BKN005 OVC020 
     TEMPO 2608/2613 6SM -RASN OVC020 
     BECMG 2610/2612 08018G28KT 
     FM261300 08018G28KT 6SM -RASN SCT008 OVC020 
     TEMPO 2613/2620 3SM -SN RMK NXT FCST BY 261400Z
       
TAF CYCB 261238Z 2613/2701 06012KT P6SM -SN FEW005 OVC010 
     TEMPO 2613/2701 5SM -SN RMK NXT FCST BY 261900Z
       
TAF CYCO 261238Z 2613/2701 04007KT P6SM -SN OVC008 
     TEMPO 2613/2701 11/2SM -SN -FZDZ BR OVC004 RMK NXT FCST BY 261900Z
       
TAF AMD CYCY 261239Z 2613/2701 32012KT P6SM -SN SCT015 OVC030 
     TEMPO 2613/2701 2SM -SN BR OVC015 
     BECMG 2621/2623 VRB03KT RMK FCST BASED ON AUTO OBS. NXT FCST BY 261900Z
       
TAF CYDB 261138Z 2612/2624 12006KT P6SM BKN160 
     FM261800 11010G20KT P6SM SCT100 RMK FCST BASED ON AUTO OBS. NXT FCST BY 261800Z
       
TAF AMD CYDF 261009Z 2610/2620 04005KT P6SM SCT012 OVC025 
     TEMPO 2610/2613 6SM -DZ BR SCT006 OVC012 
     PROB40 2610/2613 1SM -DZ BR BKN005 OVC010 
     FM261300 04008KT P6SM OVC025 
     TEMPO 2613/2618 OVC012 
     FM261800 04008KT P6SM BKN020 BKN030 RMK NXT FCST BY 261400Z
       
TAF AMD CYDN 261327Z 2613/2624 VRB03KT 5SM BR OVC005 
     TEMPO 2613/2617 P6SM NSW OVC010 
     FM261700 04008KT P6SM OVC012 
     TEMPO 2617/2622 OVC025 
     FM262200 06006KT P6SM SCT030 RMK FCST BASED ON AUTO OBS. NXT FCST BY 261800Z
       
TAF CYDP 260941Z 2610/2622 VRB03KT P6SM OVC025 
     TEMPO 2610/2614 OVC020 
     FM261400 25008KT P6SM BKN020 
     TEMPO 2614/2622 SCT020 
     BECMG 2616/2618 30015KT RMK NXT FCST BY 261400Z
       
TAF CYDQ 261238Z 2613/2701 23015G25KT P6SM SKC RMK FCST BASED ON AUTO OBS. NXT FCST BY 261900Z
       
TAF CYED 260530Z 2606/2618 15005KT P6SM SCT080 BKN130 
     TEMPO 2606/2610 P6SM -SHRA BKN080 
     FM261200 30010KT P6SM FEW060 
     BECMG 2612/2614 31012G22KT RMK FCST BASED ON AUTO OBS. NXT FCST BY 261200Z
       
TAF CYEG 261138Z 2612/2712 33008KT P6SM BKN120 
     FM261400 32012G22KT P6SM FEW120 
     FM262300 31008KT P6SM SCT070 
     FM270400 05006KT P6SM BKN070 RMK NXT FCST BY 261500Z
       
TAF CYEK 261138Z 2612/2624 15020KT P6SM OVC012 
     TEMPO 2612/2620 5SM -SN BR OVC005 
     FM262000 18020KT P6SM OVC012 
     TEMPO 2620/2624 5SM -FZRA BR OVC008 RMK FCST BASED ON AUTO OBS. NXT FCST BY 261800Z
       
TAF CYEN 261151Z 2612/2624 26006KT P6SM SKC RMK NXT FCST BY 261800Z
       
TAF AMD CYER 261328Z 2613/2619 12012KT P6SM FEW015 
     TEMPO 2613/2614 BKN012 
     BECMG 2616/2618 13012G22KT RMK FCST BASED ON AUTO OBS. NXT FCST BY 261500Z
       
TAF CYEV 261238Z 2613/2701 28010KT 1SM -SN BR OVC005 
     TEMPO 2613/2617 3SM -SN OVC010 
     FM261700 34010G20KT 2SM -SN BR OVC008 
     TEMPO 2617/2701 P6SM -SN OVC015 RMK NXT FCST BY 261900Z
       
TAF CYFB 261138Z 2612/2712 33015KT P6SM OVC030 
     TEMPO 2612/2624 5SM -SN BKN020 OVC030 
     BECMG 2613/2615 33022KT 
     FM270000 33010KT P6SM OVC030 
     TEMPO 2700/2712 5SM -SN BKN020 OVC030 
     BECMG 2705/2707 VRB03KT RMK NXT FCST BY 261800Z
       
TAF AMD CYFC 261312Z 2613/2624 36008KT P6SM BKN008 OVC015 
     TEMPO 2613/2616 SCT015 BKN025 
     FM261600 33012KT P6SM SCT030 
     TEMPO 2616/2618 BKN020 RMK FCST BASED ON AUTO OBS. NXT FCST BY 261800Z
       
TAF CYFS 261138Z 2612/2624 12005KT P6SM SCT120 SCT210 
     FM261400 12005KT P6SM BKN050 
     FM261800 13005KT P6SM BKN040 
     PROB30 2618/2624 4SM TSRA OVC040CB RMK NXT FCST BY 261800Z
       
TAF CYGK 261138Z 2612/2624 22005KT P6SM FEW080 OVC250 
     FM261900 18008KT P6SM SCT030 BKN120 
     TEMPO 2619/2624 P6SM -SHRA BKN030 OVC080 
     PROB30 2619/2624 VRB15G25KT 2SM TSRA BR OVC030CB RMK NXT FCST BY 261400Z
       
TAF CYGL 261138Z 2612/2712 07015KT P6SM FEW020 
     TEMPO 2612/2614 BKN020 
     FM261500 09015KT P6SM FEW030 
     BECMG 2705/2707 13012KT RMK NXT FCST BY 261800Z
       
TAF AMD CYGP 261005Z 2610/2620 VRB03KT P6SM SCT006 BKN080 
     TEMPO 2610/2614 4SM BR BKN006 OVC080 
     BECMG 2610/2612 32010KT 
     FM261400 31010G20KT P6SM OVC015 RMK NXT FCST BY 261400Z
       
TAF CYGQ 260741Z 2608/2620 07012KT 11/2SM -SHRA BR OVC002 
     TEMPO 2608/2615 6SM BR OVC006 
     FM261500 08010KT 5SM -SHRA BR OVC006 
     TEMPO 2615/2618 P6SM NSW OVC010 
     FM261800 09010KT P6SM OVC010 
     TEMPO 2618/2620 6SM -SHRA BR OVC008 RMK NXT FCST BY 261400Z
       
TAF CYGR 261039Z 2611/2623 05008KT 4SM BR BKN002 OVC050 
     TEMPO 2611/2616 P6SM NSW BKN004 OVC050 
     FM261600 03010KT 5SM BR OVC006 
     TEMPO 2616/2621 P6SM NSW OVC012 
     FM262100 34012G22KT 6SM BR OVC012 RMK NXT FCST BY 261400Z
       
TAF AMD CYGV 261104Z 2611/2620 VRB03KT 4SM -RA BR BKN008 OVC015 
     TEMPO 2611/2614 P6SM NSW SCT015 OVC025 
     FM261400 06008KT P6SM -SHRA OVC015 
     FM261800 36010KT P6SM BKN025 RMK FCST BASED ON AUTO OBS. NXT FCST BY 261400Z
       
TAF CYGW 261138Z 2612/2624 04006KT P6SM FEW020 
     FM261800 09008KT P6SM FEW020 SCT140 RMK FCST BASED ON AUTO OBS. NXT FCST BY 261800Z
       
TAF CYGX 261239Z 2613/2701 08006KT P6SM OVC012 
     TEMPO 2613/2615 2SM BR OVC006 
     FM261500 12010KT P6SM OVC012 
     TEMPO 2615/2618 BKN025 
     FM261800 14010KT P6SM BKN030 OVC060 RMK NXT FCST BY 261900Z
       
TAF AMD CYHD 261209Z 2612/2620 01005KT P6SM OVC060 
     TEMPO 2612/2614 P6SM -SHRA 
     FM261400 33005KT P6SM FEW005 BKN080 
     FM261600 24010KT P6SM SCT040 BKN080 
     TEMPO 2616/2620 P6SM -SHRA BKN040 BKN080 
     PROB30 2618/2620 VRB15G30KT 2SM TSRA BR OVC040CB RMK FCST BASED ON AUTO OBS. NXT FCST BY 261400Z
       
TAF CYHK 261138Z 2612/2624 12008KT P6SM SCT015 OVC030 
     TEMPO 2612/2624 5SM -SN BR BKN015 OVC030 RMK FCST BASED ON AUTO OBS. NXT FCST BY 261800Z
       
TAF CYHM 261138Z 2612/2712 25005KT P6SM BKN200 
     FM261500 22008KT P6SM SCT080 BKN160 
     FM261900 21012KT P6SM BKN070 
     PROB30 2620/2624 VRB15G25KT 1SM +TSRA BKN020 OVC060CB 
     FM270000 23010KT P6SM FEW070 
     BECMG 2702/2704 VRB03KT 
     FM270700 05003KT 4SM BR FEW006 SCT060 
     FM270900 05005KT 11/2SM BR OVC004 RMK NXT FCST BY 261800Z
       
TAF CYHU 261138Z 2612/2712 22005KT 6SM -SHRA BR SCT040 OVC080 
     TEMPO 2612/2613 11/2SM TSRA BR SCT004 OVC040CB 
     FM261300 VRB03KT P6SM SCT020 BKN040 OVC080 
     TEMPO 2613/2618 5SM -SHRA BR BKN020 OVC040 
     BECMG 2614/2616 04010G20KT 
     FM261800 07008KT P6SM BKN050 BKN140 
     TEMPO 2618/2620 P6SM -SHRA 
     FM262000 06010KT P6SM FEW080 BKN200 
     BECMG 2702/2704 05010G20KT 
     FM270900 05010G20KT P6SM BKN030 
     BECMG 2710/2712 09010KT RMK FCST BASED ON AUTO OBS. NXT FCST BY 261800Z
       
TAF CYHY 261138Z 2612/2624 07005KT 1/2SM FG BKN002 BKN100 
     BECMG 2612/2614 P6SM NSW SCT001 BKN100 
     FM261400 04007KT P6SM BKN050 BKN100 
     FM261800 04007KT P6SM -SHRA BKN040 RMK NXT FCST BY 261800Z
       
TAF CYHZ 261139Z 2612/2712 32006KT P6SM BKN100 OVC240 
     TEMPO 2612/2614 4SM -SHRA BR BKN050 OVC100 
     FM261400 32008KT P6SM SCT012 OVC050 
     TEMPO 2614/2617 4SM -SHRA BR BKN012 OVC050 
     FM261700 32015G25KT P6SM BKN030 
     BECMG 2618/2620 FEW030 
     FM270200 02010G20KT P6SM SCT015 RMK NXT FCST BY 261500Z
       
TAF CYIO 261238Z 2613/2701 22006KT P6SM BKN030 
     TEMPO 2613/2701 SCT030 RMK FCST BASED ON AUTO OBS. NXT FCST BY 261900Z
       
TAF CYIV 261239Z 2613/2701 09010KT P6SM OVC030 
     TEMPO 2613/2701 3SM -SHRA BR OVC012 
     PROB30 2613/2618 2SM -SHRA BR OVC008 RMK NXT FCST BY 261900Z
       
TAF CYJT 261138Z 2612/2712 07005KT P6SM OVC015 
     TEMPO 2612/2614 4SM -DZ BR BKN009 OVC015 
     FM261400 28008KT P6SM BKN020 
     TEMPO 2614/2620 BKN030 
     FM262000 31012KT P6SM BKN050 
     FM270000 32010KT P6SM BKN012 OVC060 
     BECMG 2704/2706 35006KT SCT015 RMK NXT FCST BY 261800Z
       
TAF CYKA 261238Z 2613/2701 VRB03KT P6SM BKN090 
     BECMG 2618/2620 12008KT RMK NXT FCST BY 261900Z
       
TAF CYKF 260739Z 2608/2620 23006KT P6SM BKN190 
     FM261200 26008KT P6SM SCT070 BKN160 
     FM261900 20008KT P6SM BKN080 
     PROB30 2619/2620 VRB15G25KT 2SM TSRA BR BKN060CB RMK FCST BASED ON AUTO OBS. NXT FCST BY 261400Z
       
TAF CYKJ 261238Z 2613/2624 22005KT 2SM -DZ BR OVC003 
     TEMPO 2613/2616 P6SM NSW OVC008 
     FM261600 22010KT P6SM BKN007 
     TEMPO 2616/2618 SCT007 BKN030 
     FM261800 22010KT P6SM BKN030 
     TEMPO 2618/2622 P6SM -SHRA BKN020 
     FM262200 26010G20KT P6SM SCT040 RMK FCST BASED ON AUTO OBS. NXT FCST BY 261900Z
       
TAF CYKL 260738Z 2608/2620 34010G20KT P6SM SCT012 OVC080 
     TEMPO 2608/2612 BKN012 OVC080 
     FM261200 36012G22KT P6SM BKN020 
     TEMPO 2612/2620 SCT020 RMK FCST BASED ON AUTO OBS. NXT FCST BY 261400Z
       
TAF CYKZ 261138Z 2612/2624 VRB03KT P6SM BKN200 
     FM261500 10005KT P6SM SCT080 BKN160 
     BECMG 2615/2617 18010KT 
     FM262000 18015KT P6SM BKN080 
     PROB30 2620/2624 VRB15G25KT 1SM +TSRA BKN020 OVC060CB RMK NXT FCST BY 261800Z
       
TAF AMD CYLD 261312Z 2613/2624 06005KT 6SM BR OVC025 
     TEMPO 2613/2614 2SM -TSRA BR BKN020 BKN025CB 
     FM261400 08010KT 5SM BR OVC015 
     TEMPO 2614/2618 P6SM NSW BKN025 
     FM261800 09012KT P6SM BKN030 
     TEMPO 2618/2624 6SM -SHRA BR BKN030 
     PROB30 2618/2622 2SM TSRA BR BKN030CB RMK NXT FCST BY 261400Z
       
TAF CYLL 261138Z 2612/2624 17012KT P6SM BKN100 
     TEMPO 2612/2614 P6SM -SHRA 
     BECMG 2612/2614 31018G28KT 
     FM261400 31018G28KT P6SM BKN100 
     FM261800 31015G25KT P6SM SCT100 RMK FCST BASED ON AUTO OBS. NXT FCST BY 261800Z
       
TAF CYLW 261238Z 2613/2701 15008KT P6SM FEW200 
     BECMG 2619/2621 22012KT RMK FCST BASED ON AUTO OBS. NXT FCST BY 261900Z
       
TAF CYMA 261138Z 2612/2624 VRB03KT P6SM SCT120 
     FM261800 VRB03KT P6SM SCT050 BKN100 
     TEMPO 2618/2624 P6SM -SHRA BKN050 RMK NXT FCST BY 261800Z
       
TAF AMD CYMH 261312Z 2613/2621 08010KT 3SM -RASN OVC003 
     TEMPO 2613/2618 6SM BR OVC006 
     FM261800 08010KT 3SM -RASN -DZ BR OVC006 
     TEMPO 2618/2620 P6SM NSW OVC010 
     FM262000 08008KT P6SM SCT005 BKN015 RMK FCST BASED ON AUTO OBS. NXT FCST BY 261400Z
       
TAF CYMM 261238Z 2613/2701 27012KT P6SM OVC070 
     TEMPO 2613/2617 5SM -SHRA BR 
     FM261700 27015G25KT P6SM SCT070 RMK FCST BASED ON AUTO OBS. NXT FCST BY 261900Z
       
TAF CYMO 261138Z 2612/2624 05006KT P6SM FEW010 
     TEMPO 2612/2614 BKN010 
     FM261400 06010KT P6SM FEW020 SCT220 RMK FCST BASED ON AUTO OBS. NXT FCST BY 261800Z
       
TAF CYMT 261138Z 2612/2624 04012KT P6SM FEW080 SCT250 RMK FCST BASED ON AUTO OBS. NXT FCST BY 261800Z
       
TAF CYMX 261138Z 2612/2712 VRB03KT 6SM -SHRA BR SCT003 OVC060 
     TEMPO 2612/2613 2SM -SHRA BR BKN003 OVC060 
     PROB40 2612/2613 VRB15G25KT 11/2SM TSRA BR BKN003 OVC040CB 
     FM261300 VRB03KT P6SM -SHRA SCT005 BKN060 
     TEMPO 2613/2615 3SM -SHRA BR BKN005 OVC060 
     FM261500 05008KT P6SM BKN030 OVC080 
     TEMPO 2615/2617 5SM -SHRA BR FEW008 BKN020 OVC080 
     FM261700 08008KT P6SM BKN060 BKN150 
     TEMPO 2617/2619 P6SM -SHRA 
     FM261900 08008KT P6SM FEW080 BKN200 
     FM271000 05008KT P6SM BKN020 RMK NXT FCST BY 261800Z
       
TAF CYNA 260738Z 2608/2620 01005KT P6SM OVC030 
     TEMPO 2608/2614 4SM BR OVC020 
     PROB30 2608/2611 2SM BR BKN006 OVC015 
     FM261400 02008KT P6SM -SHRA OVC025 RMK FCST BASED ON AUTO OBS. NXT FCST BY 261400Z
       
TAF AMD CYND 261319Z 2613/2701 VRB03KT P6SM SCT030 OVC060 
     TEMPO 2613/2617 3SM -SHRA BR FEW005 OVC020 
     FM261700 09010KT P6SM SCT025 BKN120 
     TEMPO 2617/2622 P6SM -SHRA BKN025 OVC120 
     PROB30 2618/2620 VRB15G25KT 2SM TSRA BR BKN015 OVC120CB 
     FM262200 09008KT P6SM SCT060 BKN140 RMK NXT FCST BY 261800Z
       
TAF CYNE 261239Z 2613/2701 05006KT P6SM OVC012 
     TEMPO 2613/2701 2SM -SHRA BR OVC008 
     BECMG 2614/2616 33006KT RMK FCST BASED ON AUTO OBS. NXT FCST BY 261900Z
       
TAF CYOA 261238Z 2613/2623 36010KT 2SM BR OVC002 
     TEMPO 2613/2623 P6SM NSW OVC008 RMK NXT FCST BY 261900Z
       
TAF AMD CYOD 261149Z 2612/2712 27012KT P6SM -SHRA SCT030 BKN080 
     TEMPO 2612/2614 5SM -SHRA BR BKN030 OVC080 
     PROB30 2612/2614 VRB15G25KT 4SM TSRA BR BKN070CB 
     FM261400 29012KT P6SM SCT020 BKN120 
     TEMPO 2614/2618 6SM FU 
     BECMG 2616/2618 29015G25KT 
     FM261800 29015G25KT P6SM FEW040 FEW120 
     TEMPO 2618/2706 6SM FU 
     BECMG 2702/2704 28008KT 
     FM270600 28008KT P6SM SCT100 
     TEMPO 2706/2712 6SM FU RMK NXT FCST BY 261800Z
       
TAF CYOJ 261238Z 2613/2701 VRB03KT P6SM SCT070 
     TEMPO 2613/2615 P6SM -SHRA BKN070 
     FM261500 33005KT P6SM -SHRA BKN030 OVC070 
     TEMPO 2615/2619 5SM -SHRA BR OVC020 
     FM261900 33006KT P6SM BKN050 
     FM262200 33008KT P6SM SCT070 RMK FCST BASED ON AUTO OBS. NXT FCST BY 261900Z
       
TAF CYOW 261138Z 2612/2712 30005KT P6SM BKN080 OVC140 
     TEMPO 2612/2618 P6SM -SHRA BKN015 BKN080 OVC140 
     BECMG 2613/2615 34010KT 
     FM261800 07015KT P6SM SCT020 BKN080 
     TEMPO 2618/2622 P6SM -SHRA BKN020 OVC080 
     PROB30 2618/2622 VRB15G25KT 2SM TSRA BR BKN015 OVC030CB 
     FM262200 08010KT P6SM SCT040 BKN080 
     FM270900 07010KT P6SM -SHRA FEW020 SCT050 BKN080 RMK NXT FCST BY 261500Z
       
TAF CYOY 261130Z 2612/2624 13005KT 1SM BR OVC003 
     BECMG 2612/2614 P6SM NSW BKN250 
     FM261500 02007KT P6SM BKN250 RMK FCST BASED ON AUTO OBS. NXT FCST BY 261800Z
       
TAF CYPA 261239Z 2613/2701 08005KT P6SM SCT002 OVC010 
     TEMPO 2613/2615 2SM -DZ BR OVC002 
     FM261600 16008KT P6SM SCT012 BKN100 
     TEMPO 2616/2618 BKN012 OVC100 
     FM262200 26012KT P6SM -SHRA BKN060 
     PROB30 2622/2701 VRB15G25KT 4SM TSRA BR OVC040CB RMK NXT FCST BY 261900Z
       
TAF CYPE 261238Z 2613/2701 24010KT P6SM FEW070 
     FM261600 26015G25KT P6SM SKC RMK NXT FCST BY 261900Z
       
TAF CYPH 261138Z 2612/2624 01005KT P6SM OVC012 
     FM261500 01008KT P6SM OVC020 
     TEMPO 2615/2621 BKN025 BKN140 
     BECMG 2617/2619 30006KT 
     FM262100 18006KT P6SM BKN025 BKN120 
     FM262300 18006KT P6SM FEW020 BKN120 RMK FCST BASED ON AUTO OBS. NXT FCST BY 261800Z
       
TAF CYPL 261238Z 2613/2701 10010G20KT 4SM BR OVC005 
     TEMPO 2613/2618 P6SM NSW OVC008 
     FM261800 10010G20KT P6SM OVC012 
     TEMPO 2618/2623 P6SM -SHRA OVC008 
     FM262300 10008KT P6SM OVC010 
     TEMPO 2623/2701 5SM -DZ BR OVC007 RMK NXT FCST BY 262000Z
       
TAF CYPQ 260938Z 2610/2622 VRB03KT P6SM BKN220 
     FM261800 20008KT P6SM SCT030 
     TEMPO 2618/2620 P6SM -SHRA BKN030 
     PROB30 2618/2620 VRB15G25KT 2SM TSRA BR BKN030CB 
     FM262000 20008KT P6SM -SHRA BKN050 BKN080 
     PROB40 2620/2622 VRB15G25KT 2SM TSRA BR OVC050CB RMK FCST BASED ON AUTO OBS. NXT FCST BY 261400Z
       
TAF CYPR 261238Z 2613/2701 15008KT P6SM -RA OVC030 
     TEMPO 2613/2620 3SM -SHRA BR BKN015 OVC030 
     BECMG 2615/2617 15015G25KT 
     FM262000 14020G30KT P6SM -RA OVC030 
     TEMPO 2620/2701 4SM -RA BR OVC020 RMK FCST BASED ON AUTO OBS. NXT FCST BY 261900Z
       
TAF AMD CYPX 261204Z 2612/2624 32010KT P6SM OVC020 
     TEMPO 2612/2624 P6SM -SN OVC008 
     BECMG 2619/2621 22010KT RMK FCST BASED ON AUTO OBS. NXT FCST BY 261800Z
       
TAF AMD CYPY 261251Z 2612/2624 06005KT P6SM -RA OVC025 
     TEMPO 2612/2624 2SM TSRA BR BKN008 OVC020CB 
     BECMG 2616/2618 25012KT RMK FCST BASED ON AUTO OBS. NXT FCST BY 261800Z
       
TAF CYQA 261138Z 2612/2624 VRB03KT P6SM FEW030 BKN100 
     TEMPO 2612/2614 P6SM -SHRA BKN020 OVC100 
     FM261400 25005KT P6SM SCT030 BKN080 
     TEMPO 2614/2623 P6SM -SHRA BKN030 BKN080 
     PROB30 2617/2623 VRB15G25KT 2SM TSRA BR OVC030CB 
     FM262300 VRB03KT P6SM SCT020 BKN080 
     TEMPO 2623/2624 5SM -SHRA BR FEW005 BKN020 OVC080 
     PROB30 2623/2624 VRB15G25KT 11/2SM TSRA BR BKN005 OVC020CB RMK FCST BASED ON AUTO OBS. NXT FCST BY 261400Z
       
TAF CYQB 261138Z 2612/2712 07007KT P6SM FEW007 OVC080 
     FM261400 07008KT P6SM FEW040 BKN240 
     FM270000 05008KT P6SM SKC 
     BECMG 2710/2712 07010G20KT RMK NXT FCST BY 261800Z
       
TAF CYQD 261239Z 2613/2701 VRB03KT 3/4SM -RA BR OVC004 
     TEMPO 2613/2616 6SM BR OVC008 
     FM261600 30006KT 4SM -RA BR OVC006 
     TEMPO 2616/2620 P6SM NSW OVC012 
     FM262000 26010KT P6SM OVC020 
     TEMPO 2620/2624 OVC025 
     FM270000 22006KT P6SM SCT030 RMK FCST BASED ON AUTO OBS. NXT FCST BY 261900Z
       
TAF CYQF 261138Z 2612/2624 34015G25KT P6SM SCT120 
     FM261600 36012KT P6SM FEW120 
     BECMG 2619/2621 09008KT RMK NXT FCST BY 261800Z
       
TAF CYQG 261138Z 2612/2712 23007KT P6SM FEW070 BKN160 
     TEMPO 2612/2618 P6SM -SHRA 
     FM261800 21015G25KT P6SM -SHRA BKN060 OVC100 
     PROB30 2618/2624 2SM +TSRA BR BKN050CB 
     FM270000 19010KT P6SM SCT060 
     PROB30 2700/2704 VRB15G25KT 3SM TSRA BR BKN020 OVC060CB 
     FM270500 VRB03KT 6SM BR SKC 
     FM270800 VRB03KT 3SM BR BKN006 
     PROB30 2708/2712 1/2SM FG RMK NXT FCST BY 261800Z
       
TAF CYQH 261138Z 2612/2624 VRB03KT P6SM FEW120 
     FM262100 24008KT P6SM BKN070 RMK NXT FCST BY 261800Z
       
TAF CYQI 261139Z 2612/2624 28012KT P6SM BKN100 
     FM261300 24010KT P6SM SCT020 BKN080 
     TEMPO 2613/2623 4SM -SHRA BR BKN020 OVC080 
     BECMG 2616/2618 30008KT 
     FM262300 34008KT P6SM SCT060 RMK NXT FCST BY 261800Z
       
TAF CYQK 260741Z 2608/2620 15006KT 6SM BR FEW006 BKN110 
     TEMPO 2608/2615 2SM BR BKN006 BKN110 
     PROB30 2608/2614 1/2SM FG VV002 
     FM261500 25008KT P6SM SCT015 SCT080 
     TEMPO 2615/2618 BKN015 BKN080 
     FM261800 29010KT P6SM SCT040 BKN080 
     TEMPO 2618/2620 BKN040 BKN080 RMK NXT FCST BY 261400Z
       
TAF CYQL 261138Z 2612/2624 23012KT P6SM SCT100 
     BECMG 2613/2615 33015G25KT 
     FM262000 32010KT P6SM FEW070 SCT140 
     BECMG 2622/2624 26012KT RMK FCST BASED ON AUTO OBS. NXT FCST BY 261800Z
       
TAF CYQM 261139Z 2612/2712 01005KT 4SM -SHRA BR BKN004 OVC010 
     TEMPO 2612/2615 P6SM NSW SCT004 OVC010 
     FM261500 01008KT 5SM -SHRA BR OVC012 
     TEMPO 2615/2618 P6SM NSW SCT012 OVC040 
     FM261800 04012KT P6SM BKN025 
     FM262200 03012KT P6SM SCT015 
     BECMG 2702/2704 VRB03KT RMK NXT FCST BY 261800Z
       
TAF CYQQ 261139Z 2612/2712 30005KT P6SM BKN250 
     FM261800 08005KT P6SM BKN120 BKN220 
     FM262100 08005KT P6SM OVC070 
     BECMG 2623/2701 34003KT RMK NXT FCST BY 261800Z
       
TAF CYQR 261151Z 2612/2712 20006KT P6SM SKC 
     PROB30 2612/2614 1SM BR 
     FM262200 19010KT P6SM BKN100 
     PROB30 2622/2704 VRB15G25KT 4SM TSRA OVC060CB 
     FM270400 32010KT P6SM BKN060 
     FM271000 34010KT P6SM SCT060 RMK NXT FCST BY 261800Z
       
TAF AMD CYQT 261043Z 2610/2620 09005KT 2SM BR OVC100 
     TEMPO 2610/2612 1/4SM -SHRA FG VV002 
     PROB30 2610/2612 2SM TSRA BR SCT003 OVC090CB 
     FM261200 09006KT 1/2SM FG VV002 
     TEMPO 2612/2614 6SM BR FEW002 SCT120 
     FM261400 09008KT P6SM FEW003 OVC007 
     BECMG 2614/2616 FEW010 BKN090 
     FM261600 09008KT P6SM FEW010 BKN090 
     TEMPO 2616/2620 P6SM -SHRA RMK NXT FCST BY 261400Z
       
TAF CYQU 261238Z 2613/2701 24010KT P6SM SKC 
     FM261500 26020G30KT P6SM SKC RMK NXT FCST BY 261900Z
       
TAF CYQV 261151Z 2612/2624 30006KT 1SM BR OVC002 
     TEMPO 2612/2615 6SM BR OVC008 
     FM261500 32008KT 4SM BR BKN006 
     TEMPO 2615/2618 P6SM NSW BKN012 
     FM261800 32006KT P6SM BKN020 
     TEMPO 2618/2624 SCT020 RMK FCST BASED ON AUTO OBS. NXT FCST BY 261800Z
       
TAF CYQW 261151Z 2612/2624 10006KT P6SM SCT100 
     TEMPO 2612/2614 4SM BR 
     PROB30 2612/2614 1SM BR 
     FM261400 08008KT P6SM VCSH BKN100 
     PROB30 2618/2622 VRB20G30KT 4SM TSRA BKN040CB OVC080 
     FM262200 32012G22KT P6SM SKC RMK FCST BASED ON AUTO OBS. NXT FCST BY 261800Z
       
TAF CYQX 261138Z 2612/2712 VRB03KT 6SM -SN BR OVC006 
     TEMPO 2612/2614 11/2SM -DZ BR OVC003 
     FM261400 02008KT P6SM BKN012 
     TEMPO 2614/2622 P6SM -DZ BKN008 OVC012 
     FM262200 04008KT 3SM -DZ BR OVC003 
     PROB30 2622/2703 1SM -FZDZ BR 
     FM270300 01012G22KT 11/2SM -SN BR BKN002 OVC004 
     FM270800 35010G20KT 1/4SM -SN FG VV002 RMK NXT FCST BY 261800Z
       
TAF AMD CYQY 261217Z 2612/2624 05008KT P6SM SCT005 OVC030 
     TEMPO 2612/2622 21/2SM -SHRA BR BKN005 OVC030 
     FM262200 35012KT P6SM SCT008 OVC015 RMK NXT FCST BY 261800Z
       
TAF CYQZ 261138Z 2612/2624 VRB03KT P6SM SCT002 
     TEMPO 2612/2616 1SM BR BKN002 
     FM261600 VRB03KT P6SM FEW200 
     FM262100 VRB03KT P6SM FEW040 BKN120 RMK FCST BASED ON AUTO OBS. NXT FCST BY 261900Z
       
TAF AMD CYRB 261243Z 2612/2712 29005KT P6SM SCT030 
     TEMPO 2612/2617 2SM -SN BKN010 
     PROB30 2612/2617 1/2SM -SN FZFG OVC006 
     FM261700 34010KT P6SM OVC025 
     TEMPO 2617/2712 2SM BR OVC008 RMK NXT FCST BY 261800Z
       
TAF CYRJ 261138Z 2612/2624 32008KT P6SM FEW100 BKN220 
     BECMG 2616/2618 03010KT RMK NXT FCST BY 261400Z
       
TAF CYRL 261041Z 2611/2623 12005KT P6SM FEW006 SCT050 BKN080 
     TEMPO 2611/2614 2SM -SHRA BR BKN006 OVC050 
     PROB30 2611/2614 1/2SM FG OVC002 
     FM261400 VRB03KT P6SM FEW008 SCT050 BKN080 
     TEMPO 2614/2618 5SM -SHRA BR BKN008 OVC050 
     FM261800 27006KT P6SM SCT015 BKN040 
     TEMPO 2618/2623 P6SM -SHRA BKN015 BKN040 RMK NXT FCST BY 261400Z
       
TAF CYRQ 260738Z 2608/2620 VRB03KT P6SM SCT050 BKN100 
     TEMPO 2608/2610 6SM -SHRA BR BKN050 OVC100 
     BECMG 2608/2610 02010KT 
     FM261000 02010G20KT P6SM BKN060 BKN100 OVC220 
     FM261400 02012KT P6SM FEW080 BKN220 RMK FCST BASED ON AUTO OBS. NXT FCST BY 261400Z
       
TAF AMD CYRT 261216Z 2612/2624 15015KT P6SM BKN010 OVC080 
     TEMPO 2612/2620 5SM -SN OVC005 
     FM262000 18020KT P6SM OVC012 
     TEMPO 2620/2624 5SM -FZRA BR OVC008 RMK NXT FCST BY 261800Z
       
TAF AMD CYSB 260940Z 2609/2620 26005KT 6SM BR FEW008 BKN030 
     TEMPO 2609/2614 1/2SM FG BKN008 
     FM261400 06008KT P6SM BKN030 
     PROB30 2617/2620 2SM TSRA BR BKN040CB RMK NXT FCST BY 261400Z
       
TAF CYSC 261041Z 2611/2623 VRB03KT P6SM SCT015 BKN070 
     TEMPO 2611/2612 P6SM -SHRA BKN015 OVC070 
     FM261200 27005KT P6SM SCT015 BKN070 
     TEMPO 2612/2617 3SM -SHRA BR BKN015 OVC040 
     PROB30 2612/2617 VRB15G25KT 2SM TSRA BR BKN008 OVC040CB 
     FM261700 31008KT P6SM FEW040 BKN070 
     FM262000 04010KT P6SM FEW080 BKN200 RMK FCST BASED ON AUTO OBS. NXT FCST BY 261800Z
       
TAF CYSF 261138Z 2612/2624 09005KT P6SM BKN015 
     TEMPO 2612/2614 1SM BR BKN004 OVC015 
     FM261400 09007KT P6SM BKN020 
     FM262000 12010KT P6SM -RA OVC040 
     PROB40 2620/2624 4SM TSRA BKN020 OVC040CB 
     BECMG 2622/2624 27012G22KT RMK FCST BASED ON AUTO OBS. NXT FCST BY 261800Z
       
TAF CYSJ 261139Z 2612/2624 VRB03KT P6SM SCT006 BKN025 OVC100 
     TEMPO 2612/2614 4SM -SHRA BR BKN006 OVC050 
     FM261400 36010KT P6SM SCT012 BKN080 
     TEMPO 2614/2617 5SM -SHRA BR BKN012 OVC080 
     FM261700 33010G20KT P6SM FEW030 RMK NXT FCST BY 261800Z
       
TAF CYSM 261138Z 2612/2624 06005KT 1/2SM FG FEW030 SCT120 
     BECMG 2612/2614 P6SM NSW 
     FM261400 08005KT P6SM OVC025 
     TEMPO 2614/2618 4SM -SHRA BR OVC020 
     FM261800 08010KT P6SM -RA OVC020 
     TEMPO 2618/2624 2SM -SHRA BR BKN008 OVC015 RMK NXT FCST BY 261800Z
       
TAF CYSN 261238Z 2613/2701 23006KT P6SM BKN080 
     BECMG 2613/2615 22010KT 
     FM262100 23012KT P6SM BKN080 
     PROB30 2621/2701 2SM +TSRA BR BKN060CB RMK NXT FCST BY 262000Z
       
TAF CYTE 261238Z 2613/2701 30010KT P6SM OVC020 
     TEMPO 2613/2701 3SM -SN RMK FCST BASED ON AUTO OBS. NXT FCST BY 261900Z
       
TAF CYTH 261239Z 2613/2701 08006KT P6SM OVC030 
     TEMPO 2613/2621 4SM -RA BR OVC012 
     BECMG 2621/2623 VRB03KT RMK NXT FCST BY 261900Z
       
TAF CYTL 260741Z 2608/2620 09010G20KT P6SM SCT090 
     FM261500 12012G22KT P6SM SCT030 BKN080 
     TEMPO 2615/2620 P6SM -SHRA BKN030 OVC080 RMK FCST BASED ON AUTO OBS. NXT FCST BY 261400Z
       
TAF CYTR 261130Z 2612/2712 22008KT P6SM SCT080 BKN200 
     TEMPO 2612/2619 BKN080 BKN200 
     FM261900 23010KT P6SM BKN080 
     PROB40 2619/2624 VRB15G25KT 1SM +TSRA BR BKN030 BKN060CB 
     FM270200 06008KT P6SM FEW020 SCT080 RMK NXT FCST BY 261800Z
       
TAF CYTS 260738Z 2608/2620 06008KT P6SM SCT020 BKN060 
     TEMPO 2608/2614 5SM -SHRA BR BKN020 BKN050 
     FM261400 08008KT P6SM BKN060 
     FM261800 09010KT P6SM BKN090 RMK NXT FCST BY 261400Z
       
TAF CYTZ 260739Z 2608/2708 26005KT P6SM BKN210 
     FM261100 24008KT P6SM SCT080 BKN160 
     BECMG 2616/2618 18012KT 
     FM262000 20010G20KT P6SM BKN070 
     PROB30 2620/2624 VRB15G25KT 1SM +TSRA BKN020 OVC060CB 
     FM270000 02006KT P6SM FEW060 BKN100 
     FM270300 05006KT P6SM FEW015 FEW080 
     FM270600 06008KT 6SM BR SCT008 RMK FCST BASED ON AUTO OBS. NXT FCST BY 261400Z
       
TAF CYUL 261138Z 2612/2712 20005KT P6SM -SHRA FEW060 OVC090 
     TEMPO 2612/2613 2SM TSRA BR FEW004 OVC040CB 
     FM261300 VRB03KT P6SM -SHRA SCT020 BKN080 
     TEMPO 2613/2615 5SM -SHRA BR BKN020 OVC080 
     FM261500 05010G20KT P6SM SCT020 BKN040 OVC080 
     TEMPO 2615/2618 5SM -SHRA BR BKN020 OVC040 
     FM261800 07008KT P6SM BKN050 BKN140 
     TEMPO 2618/2620 P6SM -SHRA 
     FM262000 06010KT P6SM FEW080 BKN200 
     BECMG 2702/2704 05010G20KT 
     FM270900 05010G20KT P6SM BKN030 
     BECMG 2710/2712 07010KT RMK NXT FCST BY 261500Z
       
TAF CYUX 261238Z 2613/2701 33010KT P6SM SCT015 BKN025 
     TEMPO 2613/2701 5SM -SN BR OVC012 RMK FCST BASED ON AUTO OBS. NXT FCST BY 261900Z
       
TAF CYUY 261138Z 2612/2624 06008KT P6SM FEW050 BKN220 RMK NXT FCST BY 261800Z
       
TAF CYVC 261239Z 2613/2701 VRB03KT 1/2SM FG VV002 
     TEMPO 2613/2615 6SM BR OVC008 
     FM261500 18006KT 2SM BR OVC008 
     TEMPO 2615/2618 P6SM NSW OVC015 
     FM261800 18008KT P6SM BKN015 
     TEMPO 2618/2621 SCT015 BKN040 
     FM262100 18008KT P6SM -SHRA BKN060 
     PROB30 2621/2701 VRB15G25KT 4SM TSRA BR OVC040CB RMK NXT FCST BY 261900Z
       
TAF CYVM 261238Z 2613/2701 36010KT P6SM SCT015 OVC030 
     TEMPO 2613/2701 5SM -SN BR OVC015 
     BECMG 2621/2623 VRB03KT RMK FCST BASED ON AUTO OBS. NXT FCST BY 261900Z
       
TAF CYVO 261138Z 2612/2624 02010KT P6SM FEW070 BKN170 RMK NXT FCST BY 261800Z
       
TAF CYVP 261138Z 2612/2624 31008KT P6SM -SN FEW020 OVC040 
     FM261800 28008KT P6SM FEW020 BKN030 
     TEMPO 2618/2624 P6SM -SN BKN020 RMK NXT FCST BY 261800Z
       
TAF CYVQ 261138Z 2612/2624 29007KT P6SM FEW015 FEW060 SCT100 
     FM261800 29010KT P6SM BKN030 BKN090 
     TEMPO 2618/2624 P6SM -RA BKN015 OVC030 RMK NXT FCST BY 261800Z
       
TAF CYVR 261138Z 2612/2718 10010KT P6SM SCT020 BKN030 
     TEMPO 2612/2620 BKN020 
     FM262000 16010KT P6SM SCT040 BKN120 
     FM270400 11010KT P6SM OVC080 RMK NXT FCST BY 261500Z
       
TAF CYVV 261046Z 2611/2623 VRB03KT P6SM SCT040 BKN120 
     FM261200 VRB03KT P6SM SCT012 
     TEMPO 2612/2617 BKN012 
     FM261700 25006KT P6SM BKN060 
     PROB30 2618/2621 VRB15G25KT 2SM +TSRA BR BKN020 BKN050CB 
     FM262100 08008KT P6SM BKN060 
     PROB30 2621/2623 VRB15G25KT 2SM +TSRA BR BKN008 BKN050CB RMK NXT FCST BY 261400Z
       
TAF CYWA 261130Z 2612/2624 32005KT P6SM SCT005 
     TEMPO 2612/2614 2SM BR BKN005 
     FM261400 02006KT P6SM SCT012 BKN050 
     TEMPO 2614/2618 P6SM -SHRA BKN012 OVC040 
     FM261800 07008KT P6SM FEW020 BKN050 
     TEMPO 2618/2624 P6SM -SHRA RMK FCST BASED ON AUTO OBS. NXT FCST BY 261800Z
       
TAF AMD CYWE 261327Z 2613/2701 05006KT 6SM BR BKN008 OVC015 
     TEMPO 2613/2622 3SM BR OVC004 
     FM262200 05010KT P6SM FEW008 OVC012 
     TEMPO 2622/2701 BKN025 RMK FCST BASED ON AUTO OBS. NXT FCST BY 261900Z
       
TAF CYWG 261151Z 2612/2712 28006KT P6SM FEW004 SCT080 
     TEMPO 2612/2615 2SM BR BKN004 
     PROB30 2612/2615 1/2SM FG VV002 
     FM261500 30008KT P6SM BKN012 
     TEMPO 2615/2618 BKN025 
     FM261800 30012KT P6SM BKN030 
     FM262200 34012KT P6SM SCT040 
     BECMG 2702/2704 VRB03KT 
     FM270800 VRB03KT P6SM FEW004 
     PROB30 2708/2712 1/2SM FG VV002 RMK NXT FCST BY 261800Z
       
TAF AMD CYWK 260915Z 2609/2620 01006KT P6SM -RA OVC015 
     TEMPO 2609/2613 11/2SM -SNRA OVC006 
     FM261300 35012G22KT P6SM SCT006 BKN015 
     TEMPO 2613/2620 BKN025 
     BECMG 2617/2619 36010KT RMK FCST BASED ON AUTO OBS. NXT FCST BY 261400Z
       
TAF CYWL 261238Z 2613/2701 VRB03KT P6SM SCT040 
     PROB30 2613/2616 1/2SM FG BKN003 
     FM262000 VRB03KT P6SM BKN080 RMK NXT FCST BY 261900Z
       
TAF CYXC 261238Z 2613/2701 VRB03KT P6SM FEW080 BKN120 
     BECMG 2616/2618 15010KT 
     FM261900 15010KT P6SM SCT080 
     TEMPO 2619/2701 P6SM -SHRA BKN080 
     PROB30 2619/2701 VRB15G25KT 3SM TSRAGR BKN060CB RMK NXT FCST BY 261900Z
       
TAF CYXE 261151Z 2612/2712 VRB03KT P6SM FEW080 
     TEMPO 2612/2618 2SM BR 
     PROB30 2612/2615 1/2SM FG 
     FM261800 16012KT P6SM BKN080 
     PROB30 2621/2624 VRB15G30KT 4SM TSRA OVC060CB 
     FM270100 32010KT P6SM FEW100 RMK NXT FCST BY 261800Z
       
TAF CYXH 261138Z 2612/2624 24007KT P6SM FEW100 SCT200 
     BECMG 2614/2616 35015G25KT RMK FCST BASED ON AUTO OBS. NXT FCST BY 261800Z
       
TAF CYXJ 261238Z 2613/2701 24015G25KT P6SM FEW160 RMK NXT FCST BY 261900Z
       
TAF AMD CYXL 261028Z 2610/2620 09005KT 6SM BR FEW003 SCT050 BKN080 
     TEMPO 2610/2614 2SM -SHRA BR BKN003 OVC050 
     PROB30 2610/2614 1/2SM TSRA FG VV002 
     FM261400 11005KT P6SM SCT012 SCT100 
     TEMPO 2614/2616 BKN012 BKN100 
     FM261600 23008KT P6SM SCT040 BKN080 
     TEMPO 2616/2620 P6SM -SHRA BKN040 BKN080 
     PROB30 2618/2620 VRB15G30KT 2SM TSRA BR OVC040CB RMK NXT FCST BY 261400Z
       
TAF CYXR 261138Z 2612/2624 36008KT P6SM BKN050 
     TEMPO 2612/2614 6SM -SHRA BR BKN020 OVC050 
     BECMG 2612/2614 08010KT 
     FM261600 08010KT P6SM SCT060 RMK FCST BASED ON AUTO OBS. NXT FCST BY 261800Z
       
TAF AMD CYXS 261325Z 2613/2701 17005KT P6SM SKC 
     FM261700 20008KT P6SM FEW060 SCT200 
     FM262100 21010KT P6SM BKN060 BKN200 RMK FCST BASED ON AUTO OBS. NXT FCST BY 261900Z
       
TAF CYXT 261238Z 2613/2701 16015G25KT P6SM FEW015 BKN060 OVC200 
     TEMPO 2613/2701 5SM -SHRA BR SCT015 BKN030 OVC060 RMK NXT FCST BY 261900Z
       
TAF CYXU 261138Z 2612/2712 VRB03KT P6SM BKN220 
     FM261400 22010KT P6SM SCT080 BKN160 
     TEMPO 2614/2619 P6SM -SHRA 
     FM261900 22010KT P6SM BKN060 BKN100 
     PROB30 2619/2623 VRB15G30KT 2SM +TSRA BR BKN020 OVC060CB 
     FM270300 VRB03KT P6SM SCT070 
     FM270700 09008KT 6SM BR SCT050 
     FM270900 12005KT 2SM BR BKN006 RMK NXT FCST BY 261800Z
       
TAF CYXX 261138Z 2612/2712 VRB03KT P6SM SCT020 BKN080 
     TEMPO 2612/2613 BKN020 
     FM261300 22005KT P6SM BKN020 
     TEMPO 2613/2620 BKN030 
     BECMG 2615/2617 22010KT 
     FM262000 20012KT P6SM BKN030 
     FM262300 22010KT P6SM SCT050 BKN100 
     BECMG 2704/2706 VRB03KT RMK NXT FCST BY 261800Z
       
TAF CYXY 261138Z 2612/2712 VRB03KT P6SM FEW060 
     FM261800 16012KT P6SM SCT060 BKN200 
     TEMPO 2618/2622 BKN060 
     FM262200 16012G22KT P6SM BKN060 
     TEMPO 2622/2703 P6SM -SHRA OVC060 
     FM270300 15012G22KT P6SM BKN060 
     FM270900 18008KT P6SM SCT030 BKN120 
     TEMPO 2709/2712 P6SM -SHRA BKN030 RMK NXT FCST BY 261800Z
       
TAF CYXZ 261238Z 2613/2624 VRB03KT P6SM SCT030 BKN100 
     TEMPO 2613/2617 5SM -SHRA BR BKN020 OVC030 
     FM261700 08008KT P6SM BKN030 
     TEMPO 2617/2621 5SM -SHRA BR BKN020 
     PROB30 2617/2621 2SM TSRA BR BKN020 OVC030CB RMK NXT FCST BY 262000Z
       
TAF AMD CYYB 261138Z 2611/2620 VRB03KT 6SM BR SCT003 BKN070 
     TEMPO 2611/2614 2SM -RA BR BKN003 
     FM261400 06008KT P6SM SCT020 BKN025 
     TEMPO 2615/2618 BKN020 BKN050 RMK FCST BASED ON AUTO OBS. NXT FCST BY 261400Z
       
TAF CYYC 261138Z 2612/2712 VRB03KT P6SM BKN120 
     BECMG 2612/2614 33015G25KT 
     FM261700 02012KT P6SM FEW050 
     BECMG 2620/2622 16010KT 
     FM270400 32010KT P6SM SKC RMK NXT FCST BY 261500Z
       
TAF CYYE 261238Z 2613/2701 27006KT P6SM OVC050 
     TEMPO 2613/2615 P6SM -RA OVC040 
     FM261500 28010G20KT P6SM FEW080 RMK NXT FCST BY 261900Z
       
TAF CYYF 261238Z 2613/2701 VRB03KT P6SM SKC 
     BECMG 2615/2617 35010KT RMK NXT FCST BY 261900Z
       
TAF AMD CYYG 261312Z 2613/2624 01005KT P6SM FEW012 OVC025 
     TEMPO 2613/2615 4SM -SHRA BR BKN008 OVC012 
     FM261500 36010KT 4SM -SHRA BR OVC008 
     TEMPO 2615/2618 P6SM NSW OVC012 
     PROB40 2615/2618 OVC006 RMK NXT FCST BY 261800Z
       
TAF CYYH 261138Z 2612/2624 VRB03KT P6SM FEW090 
     TEMPO 2612/2618 1SM BR BKN008 
     FM261800 09010KT P6SM OVC025 
     TEMPO 2618/2624 5SM -SN BR BKN015 OVC030 RMK NXT FCST BY 261800Z
       
TAF CYYJ 261138Z 2612/2712 29010KT P6SM FEW100 SCT180 
     BECMG 2616/2618 12008KT 
     FM262100 12008KT P6SM FEW040 BKN120 
     FM270200 18007KT P6SM SCT050 BKN100 
     BECMG 2704/2706 28007KT RMK NXT FCST BY 261800Z
       
TAF CYYL 261239Z 2613/2701 14006KT P6SM OVC030 
     TEMPO 2613/2619 4SM -DZ BR OVC020 
     BECMG 2614/2616 28010KT RMK FCST BASED ON AUTO OBS. NXT FCST BY 261900Z
       
TAF CYYN 261151Z 2612/2624 14008KT P6SM SKC 
     FM261500 18015KT P6SM SCT080 
     TEMPO 2615/2618 VRB15G25KT P6SM -SHRA BKN080 
     FM261800 28010KT P6SM BKN080 
     PROB30 2618/2624 VRB20G30KT 4SM TSRA BKN060CB RMK FCST BASED ON AUTO OBS. NXT FCST BY 261800Z
       
TAF CYYQ 261151Z 2612/2712 13012KT P6SM OVC010 
     TEMPO 2612/2614 2SM -SN BR OVC005 
     FM261800 15015KT P6SM BKN025 
     TEMPO 2618/2621 BKN012 
     FM262100 15015KT P6SM VCSH SCT030 OVC080 
     FM270300 13008KT P6SM -SHRA OVC030 
     FM271000 20010KT P6SM BKN012 RMK NXT FCST BY 261800Z
       
TAF CYYR 261130Z 2612/2712 06005KT P6SM SCT009 BKN100 
     TEMPO 2612/2613 BKN009 BKN100 
     FM261500 06010KT P6SM SCT040 SCT100 BKN220 
     FM261900 05010KT P6SM -SHRA SCT020 BKN040 BKN100 
     BECMG 2701/2703 32010KT 
     FM270400 32012KT P6SM SCT015 OVC030 RMK NXT FCST BY 261800Z
       
TAF AMD CYYT 261211Z 2612/2712 27012KT 1/2SM -DZ FG VV002 
     BECMG 2612/2614 P6SM NSW SCT004 BKN015 
     FM261400 28010KT P6SM SCT007 BKN015 
     TEMPO 2614/2622 BKN007 OVC015 
     FM262200 05008KT 6SM -DZ BR OVC005 
     FM270100 02009KT 3SM -DZ BR OVC003 
     FM270500 36012KT 1/2SM -RA FG VV002 
     BECMG 2705/2707 35018G28KT 
     FM271100 35020G30KT 6SM BR OVC005 RMK NXT FCST BY 261800Z
       
TAF CYYU 260738Z 2608/2620 06008KT P6SM FEW020 BKN060 
     FM261800 09010KT P6SM BKN100 RMK NXT FCST BY 261400Z
       
TAF AMD CYYY 261009Z 2610/2620 04007KT 3/8SM FG VV001 
     BECMG 2610/2612 P6SM NSW FEW015 
     FM261200 33005KT P6SM FEW015 
     BECMG 2612/2614 29010G20KT RMK NXT FCST BY 261400Z
       
TAF CYYZ 261138Z 2612/2718 31005KT P6SM SCT180 BKN260 
     FM261500 09006KT P6SM SCT080 BKN160 
     BECMG 2615/2617 20012KT 
     FM262000 18015KT P6SM BKN080 
     PROB30 2620/2702 VRB15G25KT 1SM +TSRA BKN020 OVC060CB 
     FM270300 05006KT P6SM FEW060 BKN100 
     FM270600 07006KT 6SM BR FEW006 SCT012 
     FM270800 09006KT 11/2SM BR OVC004 
     FM271500 08005KT P6SM SCT012 BKN030 
     BECMG 2715/2717 16008KT SCT050 RMK NXT FCST BY 261500Z
       
TAF CYZE 260939Z 2610/2622 05008KT P6SM -SHRA BKN040 
     TEMPO 2610/2611 2SM TSRA BR BKN020 OVC040CB 
     FM261100 VRB03KT P6SM BKN050 
     TEMPO 2611/2615 3SM -SHRA BR BKN020 OVC050 
     PROB30 2611/2614 2SM TSRA BR BKN020 OVC040CB 
     FM261500 VRB03KT P6SM BKN030 
     TEMPO 2615/2622 5SM -SHRA BR BKN030 RMK FCST BASED ON AUTO OBS. NXT FCST BY 261400Z
       
TAF CYZF 261138Z 2612/2712 08005KT P6SM FEW060 SCT220 
     FM262000 27008KT P6SM BKN040 
     TEMPO 2620/2701 P6SM -SHRA BKN020 OVC040 
     FM270100 30005KT P6SM SCT060 
     BECMG 2707/2709 11010KT RMK NXT FCST BY 261800Z
       
TAF CYZH 261238Z 2613/2701 26015G25KT P6SM SKC RMK FCST BASED ON AUTO OBS. NXT FCST BY 261900Z
       
TAF CYZP 261238Z 2613/2701 17010KT P6SM -RA SCT040 OVC080 
     TEMPO 2613/2615 5SM -SHRA BR SCT020 OVC040 
     FM261500 15020G30KT P6SM -RA SCT020 OVC040 
     TEMPO 2615/2620 3SM -SHRA BR SCT008 BKN020 OVC040 
     FM262000 18012G22KT P6SM -RA SCT015 OVC030 
     TEMPO 2620/2701 4SM -RA BR BKN015 OVC030 RMK FCST BASED ON AUTO OBS. NXT FCST BY 261900Z
       
TAF CYZR 260739Z 2608/2620 20006KT P6SM OVC220 
     FM260900 21008KT P6SM SCT090 BKN160 
     BECMG 2614/2616 25008KT RMK FCST BASED ON AUTO OBS. NXT FCST BY 261400Z
       
TAF CYZS 261238Z 2613/2701 VRB03KT P6SM FEW020 BKN150 
     TEMPO 2613/2616 BKN020 
     FM261700 22010KT P6SM SCT020 BKN080 
     TEMPO 2617/2701 5SM -SN OVC020 RMK NXT FCST BY 261900Z
       
TAF CYZT 261238Z 2613/2701 VRB03KT P6SM BKN030 OVC100 
     TEMPO 2616/2619 P6SM -RA BKN030 OVC050 
     FM261900 18008G18KT P6SM -RA SCT020 OVC040 
     TEMPO 2619/2701 4SM -RA BR BKN020 OVC040 
     BECMG 2620/2622 14010G20KT RMK NXT FCST BY 261900Z
       
TAF CYZV 261139Z 2612/2712 VRB03KT 1/4SM FG VV002 
     BECMG 2612/2614 P6SM NSW SCT012 
     FM261400 26008KT P6SM SCT012 
     TEMPO 2614/2616 4SM BR BKN012 
     FM261600 30010KT P6SM BKN030 
     FM270000 36007KT P6SM FEW030 RMK NXT FCST BY 261800Z
       
TAF CYZX 261132Z 2612/2712 VRB03KT P6SM SCT020 BKN100 
     TEMPO 2612/2616 5SM -SHRA BR BKN020 OVC100 
     BECMG 2613/2614 27007KT 
     FM261600 31012KT P6SM SCT020 BKN040 BKN250 
     TEMPO 2616/2619 BKN020 
     FM262000 03010G20KT P6SM SCT020 BKN250 
     FM270300 05005KT P6SM SCT250 
     FM270800 05003KT 3SM BR SCT005 
     FM271100 05005KT P6SM SCT012 RMK NXT FCST BY 261800Z
       
TAF CYEK 261138Z 2612/2624 15020KT P6SM OVC012 
     TEMPO 2612/2620 5SM -SN BR OVC005 
     FM262000 18020KT P6SM OVC012 
     TEMPO 2620/2624 5SM -FZRA BR OVC008 RMK FCST BASED ON AUTO OBS. NXT FCST BY 261800Z
       
TAF CYBG 261130Z 2612/2712 30012KT P6SM SCT250 
     BECMG 2616/2618 35005KT 
     BECMG 2621/2623 07008KT RMK NXT FCST BY 261800Z
       
TAF CYBC 260738Z 2608/2620 VRB03KT P6SM SKC 
     BECMG 2610/2612 31010G20KT RMK FCST BASED ON AUTO OBS. NXT FCST BY 261400Z
       
TAF AMD CYBK 261218Z 2612/2624 14020KT P6SM -FZRA SCT008 OVC030 
     TEMPO 2612/2620 2SM -FZRA -PL BR OVC008 
     FM262000 16012KT P6SM OVC020 
     TEMPO 2620/2624 5SM -DZ BR OVC008 RMK NXT FCST BY 261800Z
       
TAF CZBF 260838Z 2609/2621 VRB03KT P6SM BKN030 
     TEMPO 2609/2615 BKN020 
     FM261500 31010G20KT P6SM SCT030 RMK NXT FCST BY 261400Z
       
TAF CYBR 261151Z 2612/2624 29008KT P6SM FEW004 SCT080 
     TEMPO 2612/2614 2SM BR 
     PROB30 2612/2614 1SM BR BKN004 
     FM261400 30012KT P6SM SCT006 BKN012 
     TEMPO 2614/2618 BKN025 
     FM261800 32015KT P6SM SCT030 RMK NXT FCST BY 261800Z
       
TAF CYDB 261138Z 2612/2624 12006KT P6SM BKN160 
     FM261800 11010G20KT P6SM SCT100 RMK FCST BASED ON AUTO OBS. NXT FCST BY 261800Z
       
TAF CYYC 261138Z 2612/2712 VRB03KT P6SM BKN120 
     BECMG 2612/2614 33015G25KT 
     FM261700 02012KT P6SM FEW050 
     BECMG 2620/2622 16010KT 
     FM270400 32010KT P6SM SKC RMK NXT FCST BY 261500Z
       
TAF CYBW 261138Z 2612/2624 30010KT P6SM BKN120 
     BECMG 2612/2614 33015G25KT 
     FM261700 02012KT P6SM FEW050 
     FM262000 15010KT P6SM SCT050 
     TEMPO 2622/2624 P6SM VCTS SCT050CB RMK FCST BASED ON AUTO OBS. NXT FCST BY 261800Z
       
TAF CYCB 261238Z 2613/2701 06012KT P6SM -SN FEW005 OVC010 
     TEMPO 2613/2701 5SM -SN RMK NXT FCST BY 261900Z
       
TAF CYTE 261238Z 2613/2701 30010KT P6SM OVC020 
     TEMPO 2613/2701 3SM -SN RMK FCST BASED ON AUTO OBS. NXT FCST BY 261900Z
       
TAF AMD CYLD 261312Z 2613/2624 06005KT 6SM BR OVC025 
     TEMPO 2613/2614 2SM -TSRA BR BKN020 BKN025CB 
     FM261400 08010KT 5SM BR OVC015 
     TEMPO 2614/2618 P6SM NSW BKN025 
     FM261800 09012KT P6SM BKN030 
     TEMPO 2618/2624 6SM -SHRA BR BKN030 
     PROB30 2618/2622 2SM TSRA BR BKN030CB RMK NXT FCST BY 261400Z
       
TAF AMD CYYG 261312Z 2613/2624 01005KT P6SM FEW012 OVC025 
     TEMPO 2613/2615 4SM -SHRA BR BKN008 OVC012 
     FM261500 36010KT 4SM -SHRA BR OVC008 
     TEMPO 2615/2618 P6SM NSW OVC012 
     PROB40 2615/2618 OVC006 RMK NXT FCST BY 261800Z
       
TAF CYMT 261138Z 2612/2624 04012KT P6SM FEW080 SCT250 RMK FCST BASED ON AUTO OBS. NXT FCST BY 261800Z
       
TAF CYYQ 261151Z 2612/2712 13012KT P6SM OVC010 
     TEMPO 2612/2614 2SM -SN BR OVC005 
     FM261800 15015KT P6SM BKN025 
     TEMPO 2618/2621 BKN012 
     FM262100 15015KT P6SM VCSH SCT030 OVC080 
     FM270300 13008KT P6SM -SHRA OVC030 
     FM271000 20010KT P6SM BKN012 RMK NXT FCST BY 261800Z
       
TAF AMD CZUM 261037Z 2610/2620 09005KT 5SM -RA BR OVC006 
     TEMPO 2610/2612 P6SM -SNRA SCT006 OVC040 
     FM261200 08008KT P6SM -SN BKN010 OVC070 
     TEMPO 2612/2617 P6SM NSW SCT010 OVC070 
     BECMG 2613/2615 36009KT 
     FM261700 35012KT P6SM BKN015 RMK FCST BASED ON AUTO OBS. NXT FCST BY 261400Z
       
TAF AMD CYCY 261239Z 2613/2701 32012KT P6SM -SN SCT015 OVC030 
     TEMPO 2613/2701 2SM -SN BR OVC015 
     BECMG 2621/2623 VRB03KT RMK FCST BASED ON AUTO OBS. NXT FCST BY 261900Z
       
TAF AMD CYOD 261149Z 2612/2712 27012KT P6SM -SHRA SCT030 BKN080 
     TEMPO 2612/2614 5SM -SHRA BR BKN030 OVC080 
     PROB30 2612/2614 VRB15G25KT 4SM TSRA BR BKN070CB 
     FM261400 29012KT P6SM SCT020 BKN120 
     TEMPO 2614/2618 6SM FU 
     BECMG 2616/2618 29015G25KT 
     FM261800 29015G25KT P6SM FEW040 FEW120 
     TEMPO 2618/2706 6SM FU 
     BECMG 2702/2704 28008KT 
     FM270600 28008KT P6SM SCT100 
     TEMPO 2706/2712 6SM FU RMK NXT FCST BY 261800Z
       
TAF CYQQ 261139Z 2612/2712 30005KT P6SM BKN250 
     FM261800 08005KT P6SM BKN120 BKN220 
     FM262100 08005KT P6SM OVC070 
     BECMG 2623/2701 34003KT RMK NXT FCST BY 261800Z
       
TAF CYZS 261238Z 2613/2701 VRB03KT P6SM FEW020 BKN150 
     TEMPO 2613/2616 BKN020 
     FM261700 22010KT P6SM SCT020 BKN080 
     TEMPO 2617/2701 5SM -SN OVC020 RMK NXT FCST BY 261900Z
       
TAF CYXC 261238Z 2613/2701 VRB03KT P6SM FEW080 BKN120 
     BECMG 2616/2618 15010KT 
     FM261900 15010KT P6SM SCT080 
     TEMPO 2619/2701 P6SM -SHRA BKN080 
     PROB30 2619/2701 VRB15G25KT 3SM TSRAGR BKN060CB RMK NXT FCST BY 261900Z
       
TAF AMD CYDN 261327Z 2613/2624 VRB03KT 5SM BR OVC005 
     TEMPO 2613/2617 P6SM NSW OVC010 
     FM261700 04008KT P6SM OVC012 
     TEMPO 2617/2622 OVC025 
     FM262200 06006KT P6SM SCT030 RMK FCST BASED ON AUTO OBS. NXT FCST BY 261800Z
       
TAF CYDQ 261238Z 2613/2701 23015G25KT P6SM SKC RMK FCST BASED ON AUTO OBS. NXT FCST BY 261900Z
       
TAF AMD CYDF 261009Z 2610/2620 04005KT P6SM SCT012 OVC025 
     TEMPO 2610/2613 6SM -DZ BR SCT006 OVC012 
     PROB40 2610/2613 1SM -DZ BR BKN005 OVC010 
     FM261300 04008KT P6SM OVC025 
     TEMPO 2613/2618 OVC012 
     FM261800 04008KT P6SM BKN020 BKN030 RMK NXT FCST BY 261400Z
       
TAF AMD CYHD 261209Z 2612/2620 01005KT P6SM OVC060 
     TEMPO 2612/2614 P6SM -SHRA 
     FM261400 33005KT P6SM FEW005 BKN080 
     FM261600 24010KT P6SM SCT040 BKN080 
     TEMPO 2616/2620 P6SM -SHRA BKN040 BKN080 
     PROB30 2618/2620 VRB15G30KT 2SM TSRA BR OVC040CB RMK FCST BASED ON AUTO OBS. NXT FCST BY 261400Z
       
TAF CYXR 261138Z 2612/2624 36008KT P6SM BKN050 
     TEMPO 2612/2614 6SM -SHRA BR BKN020 OVC050 
     BECMG 2612/2614 08010KT 
     FM261600 08010KT P6SM SCT060 RMK FCST BASED ON AUTO OBS. NXT FCST BY 261800Z
       
TAF CYEG 261138Z 2612/2712 33008KT P6SM BKN120 
     FM261400 32012G22KT P6SM FEW120 
     FM262300 31008KT P6SM SCT070 
     FM270400 05006KT P6SM BKN070 RMK NXT FCST BY 261500Z
       
TAF CZVL 261138Z 2612/2624 31006KT P6SM BKN120 
     FM261400 31012G22KT P6SM FEW120 
     FM262300 30008KT P6SM SCT070 RMK FCST BASED ON AUTO OBS. NXT FCST BY 261800Z
       
TAF CYEN 261151Z 2612/2624 26006KT P6SM SKC RMK NXT FCST BY 261800Z
       
TAF AMD CYPY 261251Z 2612/2624 06005KT P6SM -RA OVC025 
     TEMPO 2612/2624 2SM TSRA BR BKN008 OVC020CB 
     BECMG 2616/2618 25012KT RMK FCST BASED ON AUTO OBS. NXT FCST BY 261800Z
       
TAF CYMM 261238Z 2613/2701 27012KT P6SM OVC070 
     TEMPO 2613/2617 5SM -SHRA BR 
     FM261700 27015G25KT P6SM SCT070 RMK FCST BASED ON AUTO OBS. NXT FCST BY 261900Z
       
TAF CYYE 261238Z 2613/2701 27006KT P6SM OVC050 
     TEMPO 2613/2615 P6SM -RA OVC040 
     FM261500 28010G20KT P6SM FEW080 RMK NXT FCST BY 261900Z
       
TAF CYFS 261138Z 2612/2624 12005KT P6SM SCT120 SCT210 
     FM261400 12005KT P6SM BKN050 
     FM261800 13005KT P6SM BKN040 
     PROB30 2618/2624 4SM TSRA OVC040CB RMK NXT FCST BY 261800Z
       
TAF CYSM 261138Z 2612/2624 06005KT 1/2SM FG FEW030 SCT120 
     BECMG 2612/2614 P6SM NSW 
     FM261400 08005KT P6SM OVC025 
     TEMPO 2614/2618 4SM -SHRA BR OVC020 
     FM261800 08010KT P6SM -RA OVC020 
     TEMPO 2618/2624 2SM -SHRA BR BKN008 OVC015 RMK NXT FCST BY 261800Z
       
TAF CYXJ 261238Z 2613/2701 24015G25KT P6SM FEW160 RMK NXT FCST BY 261900Z
       
TAF AMD CYFC 261312Z 2613/2624 36008KT P6SM BKN008 OVC015 
     TEMPO 2613/2616 SCT015 BKN025 
     FM261600 33012KT P6SM SCT030 
     TEMPO 2616/2618 BKN020 RMK FCST BASED ON AUTO OBS. NXT FCST BY 261800Z
       
TAF CYQX 261138Z 2612/2712 VRB03KT 6SM -SN BR OVC006 
     TEMPO 2612/2614 11/2SM -DZ BR OVC003 
     FM261400 02008KT P6SM BKN012 
     TEMPO 2614/2622 P6SM -DZ BKN008 OVC012 
     FM262200 04008KT 3SM -DZ BR OVC003 
     PROB30 2622/2703 1SM -FZDZ BR 
     FM270300 01012G22KT 11/2SM -SN BR BKN002 OVC004 
     FM270800 35010G20KT 1/4SM -SN FG VV002 RMK NXT FCST BY 261800Z
       
TAF AMD CYGP 261005Z 2610/2620 VRB03KT P6SM SCT006 BKN080 
     TEMPO 2610/2614 4SM BR BKN006 OVC080 
     BECMG 2610/2612 32010KT 
     FM261400 31010G20KT P6SM OVC015 RMK NXT FCST BY 261400Z
       
TAF AMD CYND 261319Z 2613/2701 VRB03KT P6SM SCT030 OVC060 
     TEMPO 2613/2617 3SM -SHRA BR FEW005 OVC020 
     FM261700 09010KT P6SM SCT025 BKN120 
     TEMPO 2617/2622 P6SM -SHRA BKN025 OVC120 
     PROB30 2618/2620 VRB15G25KT 2SM TSRA BR BKN015 OVC120CB 
     FM262200 09008KT P6SM SCT060 BKN140 RMK NXT FCST BY 261800Z
       
TAF CYGQ 260741Z 2608/2620 07012KT 11/2SM -SHRA BR OVC002 
     TEMPO 2608/2615 6SM BR OVC006 
     FM261500 08010KT 5SM -SHRA BR OVC006 
     TEMPO 2615/2618 P6SM NSW OVC010 
     FM261800 09010KT P6SM OVC010 
     TEMPO 2618/2620 6SM -SHRA BR OVC008 RMK NXT FCST BY 261400Z
       
TAF CYHK 261138Z 2612/2624 12008KT P6SM SCT015 OVC030 
     TEMPO 2612/2624 5SM -SN BR BKN015 OVC030 RMK FCST BASED ON AUTO OBS. NXT FCST BY 261800Z
       
TAF CYYR 261130Z 2612/2712 06005KT P6SM SCT009 BKN100 
     TEMPO 2612/2613 BKN009 BKN100 
     FM261500 06010KT P6SM SCT040 SCT100 BKN220 
     FM261900 05010KT P6SM -SHRA SCT020 BKN040 BKN100 
     BECMG 2701/2703 32010KT 
     FM270400 32012KT P6SM SCT015 OVC030 RMK NXT FCST BY 261800Z
       
TAF CYZE 260939Z 2610/2622 05008KT P6SM -SHRA BKN040 
     TEMPO 2610/2611 2SM TSRA BR BKN020 OVC040CB 
     FM261100 VRB03KT P6SM BKN050 
     TEMPO 2611/2615 3SM -SHRA BR BKN020 OVC050 
     PROB30 2611/2614 2SM TSRA BR BKN020 OVC040CB 
     FM261500 VRB03KT P6SM BKN030 
     TEMPO 2615/2622 5SM -SHRA BR BKN030 RMK FCST BASED ON AUTO OBS. NXT FCST BY 261400Z
       
TAF CYQU 261238Z 2613/2701 24010KT P6SM SKC 
     FM261500 26020G30KT P6SM SKC RMK NXT FCST BY 261900Z
       
TAF CYZX 261132Z 2612/2712 VRB03KT P6SM SCT020 BKN100 
     TEMPO 2612/2616 5SM -SHRA BR BKN020 OVC100 
     BECMG 2613/2614 27007KT 
     FM261600 31012KT P6SM SCT020 BKN040 BKN250 
     TEMPO 2616/2619 BKN020 
     FM262000 03010G20KT P6SM SCT020 BKN250 
     FM270300 05005KT P6SM SCT250 
     FM270800 05003KT 3SM BR SCT005 
     FM271100 05005KT P6SM SCT012 RMK NXT FCST BY 261800Z
       
TAF CYHZ 261139Z 2612/2712 32006KT P6SM BKN100 OVC240 
     TEMPO 2612/2614 4SM -SHRA BR BKN050 OVC100 
     FM261400 32008KT P6SM SCT012 OVC050 
     TEMPO 2614/2617 4SM -SHRA BR BKN012 OVC050 
     FM261700 32015G25KT P6SM BKN030 
     BECMG 2618/2620 FEW030 
     FM270200 02010G20KT P6SM SCT015 RMK NXT FCST BY 261500Z
       
TAF CYUX 261238Z 2613/2701 33010KT P6SM SCT015 BKN025 
     TEMPO 2613/2701 5SM -SN BR OVC012 RMK FCST BASED ON AUTO OBS. NXT FCST BY 261900Z
       
TAF CYHM 261138Z 2612/2712 25005KT P6SM BKN200 
     FM261500 22008KT P6SM SCT080 BKN160 
     FM261900 21012KT P6SM BKN070 
     PROB30 2620/2624 VRB15G25KT 1SM +TSRA BKN020 OVC060CB 
     FM270000 23010KT P6SM FEW070 
     BECMG 2702/2704 VRB03KT 
     FM270700 05003KT 4SM BR FEW006 SCT060 
     FM270900 05005KT 11/2SM BR OVC004 RMK NXT FCST BY 261800Z
       
TAF AMD CYGV 261104Z 2611/2620 VRB03KT 4SM -RA BR BKN008 OVC015 
     TEMPO 2611/2614 P6SM NSW SCT015 OVC025 
     FM261400 06008KT P6SM -SHRA OVC015 
     FM261800 36010KT P6SM BKN025 RMK FCST BASED ON AUTO OBS. NXT FCST BY 261400Z
       
TAF CYHY 261138Z 2612/2624 07005KT 1/2SM FG BKN002 BKN100 
     BECMG 2612/2614 P6SM NSW SCT001 BKN100 
     FM261400 04007KT P6SM BKN050 BKN100 
     FM261800 04007KT P6SM -SHRA BKN040 RMK NXT FCST BY 261800Z
       
TAF CYOJ 261238Z 2613/2701 VRB03KT P6SM SCT070 
     TEMPO 2613/2615 P6SM -SHRA BKN070 
     FM261500 33005KT P6SM -SHRA BKN030 OVC070 
     TEMPO 2615/2619 5SM -SHRA BR OVC020 
     FM261900 33006KT P6SM BKN050 
     FM262200 33008KT P6SM SCT070 RMK FCST BASED ON AUTO OBS. NXT FCST BY 261900Z
       
TAF CYGR 261039Z 2611/2623 05008KT 4SM BR BKN002 OVC050 
     TEMPO 2611/2616 P6SM NSW BKN004 OVC050 
     FM261600 03010KT 5SM BR OVC006 
     TEMPO 2616/2621 P6SM NSW OVC012 
     FM262100 34012G22KT 6SM BR OVC012 RMK NXT FCST BY 261400Z
       
TAF CYEV 261238Z 2613/2701 28010KT 1SM -SN BR OVC005 
     TEMPO 2613/2617 3SM -SN OVC010 
     FM261700 34010G20KT 2SM -SN BR OVC008 
     TEMPO 2617/2701 P6SM -SN OVC015 RMK NXT FCST BY 261900Z
       
TAF CYFB 261138Z 2612/2712 33015KT P6SM OVC030 
     TEMPO 2612/2624 5SM -SN BKN020 OVC030 
     BECMG 2613/2615 33022KT 
     FM270000 33010KT P6SM OVC030 
     TEMPO 2700/2712 5SM -SN BKN020 OVC030 
     BECMG 2705/2707 VRB03KT RMK NXT FCST BY 261800Z
       
TAF CYKA 261238Z 2613/2701 VRB03KT P6SM BKN090 
     BECMG 2618/2620 12008KT RMK NXT FCST BY 261900Z
       
TAF CYYU 260738Z 2608/2620 06008KT P6SM FEW020 BKN060 
     FM261800 09010KT P6SM BKN100 RMK NXT FCST BY 261400Z
       
TAF CYLW 261238Z 2613/2701 15008KT P6SM FEW200 
     BECMG 2619/2621 22012KT RMK FCST BASED ON AUTO OBS. NXT FCST BY 261900Z
       
TAF CYQK 260741Z 2608/2620 15006KT 6SM BR FEW006 BKN110 
     TEMPO 2608/2615 2SM BR BKN006 BKN110 
     PROB30 2608/2614 1/2SM FG VV002 
     FM261500 25008KT P6SM SCT015 SCT080 
     TEMPO 2615/2618 BKN015 BKN080 
     FM261800 29010KT P6SM SCT040 BKN080 
     TEMPO 2618/2620 BKN040 BKN080 RMK NXT FCST BY 261400Z
       
TAF CYKF 260739Z 2608/2620 23006KT P6SM BKN190 
     FM261200 26008KT P6SM SCT070 BKN160 
     FM261900 20008KT P6SM BKN080 
     PROB30 2619/2620 VRB15G25KT 2SM TSRA BR BKN060CB RMK FCST BASED ON AUTO OBS. NXT FCST BY 261400Z
       
TAF CYCO 261238Z 2613/2701 04007KT P6SM -SN OVC008 
     TEMPO 2613/2701 11/2SM -SN -FZDZ BR OVC004 RMK NXT FCST BY 261900Z
       
TAF CYVP 261138Z 2612/2624 31008KT P6SM -SN FEW020 OVC040 
     FM261800 28008KT P6SM FEW020 BKN030 
     TEMPO 2618/2624 P6SM -SN BKN020 RMK NXT FCST BY 261800Z
       
TAF CYGL 261138Z 2612/2712 07015KT P6SM FEW020 
     TEMPO 2612/2614 BKN020 
     FM261500 09015KT P6SM FEW030 
     BECMG 2705/2707 13012KT RMK NXT FCST BY 261800Z
       
TAF CYVC 261239Z 2613/2701 VRB03KT 1/2SM FG VV002 
     TEMPO 2613/2615 6SM BR OVC008 
     FM261500 18006KT 2SM BR OVC008 
     TEMPO 2615/2618 P6SM NSW OVC015 
     FM261800 18008KT P6SM BKN015 
     TEMPO 2618/2621 SCT015 BKN040 
     FM262100 18008KT P6SM -SHRA BKN060 
     PROB30 2621/2701 VRB15G25KT 4SM TSRA BR OVC040CB RMK NXT FCST BY 261900Z
       
TAF CYQL 261138Z 2612/2624 23012KT P6SM SCT100 
     BECMG 2613/2615 33015G25KT 
     FM262000 32010KT P6SM FEW070 SCT140 
     BECMG 2622/2624 26012KT RMK FCST BASED ON AUTO OBS. NXT FCST BY 261800Z
       
TAF CYLL 261138Z 2612/2624 17012KT P6SM BKN100 
     TEMPO 2612/2614 P6SM -SHRA 
     BECMG 2612/2614 31018G28KT 
     FM261400 31018G28KT P6SM BKN100 
     FM261800 31015G25KT P6SM SCT100 RMK FCST BASED ON AUTO OBS. NXT FCST BY 261800Z
       
TAF CYXU 261138Z 2612/2712 VRB03KT P6SM BKN220 
     FM261400 22010KT P6SM SCT080 BKN160 
     TEMPO 2614/2619 P6SM -SHRA 
     FM261900 22010KT P6SM BKN060 BKN100 
     PROB30 2619/2623 VRB15G30KT 2SM +TSRA BR BKN020 OVC060CB 
     FM270300 VRB03KT P6SM SCT070 
     FM270700 09008KT 6SM BR SCT050 
     FM270900 12005KT 2SM BR BKN006 RMK NXT FCST BY 261800Z
       
TAF CYBX 260738Z 2608/2620 07015G25KT 3SM -SN BR BKN005 OVC020 
     TEMPO 2608/2613 6SM -RASN OVC020 
     BECMG 2610/2612 08018G28KT 
     FM261300 08018G28KT 6SM -RASN SCT008 OVC020 
     TEMPO 2613/2620 3SM -SN RMK NXT FCST BY 261400Z
       
TAF CYYL 261239Z 2613/2701 14006KT P6SM OVC030 
     TEMPO 2613/2619 4SM -DZ BR OVC020 
     BECMG 2614/2616 28010KT RMK FCST BASED ON AUTO OBS. NXT FCST BY 261900Z
       
TAF CYMA 261138Z 2612/2624 VRB03KT P6SM SCT120 
     FM261800 VRB03KT P6SM SCT050 BKN100 
     TEMPO 2618/2624 P6SM -SHRA BKN050 RMK NXT FCST BY 261800Z
       
TAF CYXH 261138Z 2612/2624 24007KT P6SM FEW100 SCT200 
     BECMG 2614/2616 35015G25KT RMK FCST BASED ON AUTO OBS. NXT FCST BY 261800Z
       
TAF CYQM 261139Z 2612/2712 01005KT 4SM -SHRA BR BKN004 OVC010 
     TEMPO 2612/2615 P6SM NSW SCT004 OVC010 
     FM261500 01008KT 5SM -SHRA BR OVC012 
     TEMPO 2615/2618 P6SM NSW SCT012 OVC040 
     FM261800 04012KT P6SM BKN025 
     FM262200 03012KT P6SM SCT015 
     BECMG 2702/2704 VRB03KT RMK NXT FCST BY 261800Z
       
TAF AMD CYYY 261009Z 2610/2620 04007KT 3/8SM FG VV001 
     BECMG 2610/2612 P6SM NSW FEW015 
     FM261200 33005KT P6SM FEW015 
     BECMG 2612/2614 29010G20KT RMK NXT FCST BY 261400Z
       
TAF CYUL 261138Z 2612/2712 20005KT P6SM -SHRA FEW060 OVC090 
     TEMPO 2612/2613 2SM TSRA BR FEW004 OVC040CB 
     FM261300 VRB03KT P6SM -SHRA SCT020 BKN080 
     TEMPO 2613/2615 5SM -SHRA BR BKN020 OVC080 
     FM261500 05010G20KT P6SM SCT020 BKN040 OVC080 
     TEMPO 2615/2618 5SM -SHRA BR BKN020 OVC040 
     FM261800 07008KT P6SM BKN050 BKN140 
     TEMPO 2618/2620 P6SM -SHRA 
     FM262000 06010KT P6SM FEW080 BKN200 
     BECMG 2702/2704 05010G20KT 
     FM270900 05010G20KT P6SM BKN030 
     BECMG 2710/2712 07010KT RMK NXT FCST BY 261500Z
       
TAF CYMX 261138Z 2612/2712 VRB03KT 6SM -SHRA BR SCT003 OVC060 
     TEMPO 2612/2613 2SM -SHRA BR BKN003 OVC060 
     PROB40 2612/2613 VRB15G25KT 11/2SM TSRA BR BKN003 OVC040CB 
     FM261300 VRB03KT P6SM -SHRA SCT005 BKN060 
     TEMPO 2613/2615 3SM -SHRA BR BKN005 OVC060 
     FM261500 05008KT P6SM BKN030 OVC080 
     TEMPO 2615/2617 5SM -SHRA BR FEW008 BKN020 OVC080 
     FM261700 08008KT P6SM BKN060 BKN150 
     TEMPO 2617/2619 P6SM -SHRA 
     FM261900 08008KT P6SM FEW080 BKN200 
     FM271000 05008KT P6SM BKN020 RMK NXT FCST BY 261800Z
       
TAF CYHU 261138Z 2612/2712 22005KT 6SM -SHRA BR SCT040 OVC080 
     TEMPO 2612/2613 11/2SM TSRA BR SCT004 OVC040CB 
     FM261300 VRB03KT P6SM SCT020 BKN040 OVC080 
     TEMPO 2613/2618 5SM -SHRA BR BKN020 OVC040 
     BECMG 2614/2616 04010G20KT 
     FM261800 07008KT P6SM BKN050 BKN140 
     TEMPO 2618/2620 P6SM -SHRA 
     FM262000 06010KT P6SM FEW080 BKN200 
     BECMG 2702/2704 05010G20KT 
     FM270900 05010G20KT P6SM BKN030 
     BECMG 2710/2712 09010KT RMK FCST BASED ON AUTO OBS. NXT FCST BY 261800Z
       
TAF CYQA 261138Z 2612/2624 VRB03KT P6SM FEW030 BKN100 
     TEMPO 2612/2614 P6SM -SHRA BKN020 OVC100 
     FM261400 25005KT P6SM SCT030 BKN080 
     TEMPO 2614/2623 P6SM -SHRA BKN030 BKN080 
     PROB30 2617/2623 VRB15G25KT 2SM TSRA BR OVC030CB 
     FM262300 VRB03KT P6SM SCT020 BKN080 
     TEMPO 2623/2624 5SM -SHRA BR FEW005 BKN020 OVC080 
     PROB30 2623/2624 VRB15G25KT 11/2SM TSRA BR BKN005 OVC020CB RMK FCST BASED ON AUTO OBS. NXT FCST BY 261400Z
       
TAF CYNA 260738Z 2608/2620 01005KT P6SM OVC030 
     TEMPO 2608/2614 4SM BR OVC020 
     PROB30 2608/2611 2SM BR BKN006 OVC015 
     FM261400 02008KT P6SM -SHRA OVC025 RMK FCST BASED ON AUTO OBS. NXT FCST BY 261400Z
       
TAF CYVQ 261138Z 2612/2624 29007KT P6SM FEW015 FEW060 SCT100 
     FM261800 29010KT P6SM BKN030 BKN090 
     TEMPO 2618/2624 P6SM -RA BKN015 OVC030 RMK NXT FCST BY 261800Z
       
TAF CYQW 261151Z 2612/2624 10006KT P6SM SCT100 
     TEMPO 2612/2614 4SM BR 
     PROB30 2612/2614 1SM BR 
     FM261400 08008KT P6SM VCSH BKN100 
     PROB30 2618/2622 VRB20G30KT 4SM TSRA BKN040CB OVC080 
     FM262200 32012G22KT P6SM SKC RMK FCST BASED ON AUTO OBS. NXT FCST BY 261800Z
       
TAF AMD CYYB 261138Z 2611/2620 VRB03KT 6SM BR SCT003 BKN070 
     TEMPO 2611/2614 2SM -RA BR BKN003 
     FM261400 06008KT P6SM SCT020 BKN025 
     TEMPO 2615/2618 BKN020 BKN050 RMK FCST BASED ON AUTO OBS. NXT FCST BY 261400Z
       
TAF CYOW 261138Z 2612/2712 30005KT P6SM BKN080 OVC140 
     TEMPO 2612/2618 P6SM -SHRA BKN015 BKN080 OVC140 
     BECMG 2613/2615 34010KT 
     FM261800 07015KT P6SM SCT020 BKN080 
     TEMPO 2618/2622 P6SM -SHRA BKN020 OVC080 
     PROB30 2618/2622 VRB15G25KT 2SM TSRA BR BKN015 OVC030CB 
     FM262200 08010KT P6SM SCT040 BKN080 
     FM270900 07010KT P6SM -SHRA FEW020 SCT050 BKN080 RMK NXT FCST BY 261500Z
       
TAF CYPE 261238Z 2613/2701 24010KT P6SM FEW070 
     FM261600 26015G25KT P6SM SKC RMK NXT FCST BY 261900Z
       
TAF CYYF 261238Z 2613/2701 VRB03KT P6SM SKC 
     BECMG 2615/2617 35010KT RMK NXT FCST BY 261900Z
       
TAF CYWA 261130Z 2612/2624 32005KT P6SM SCT005 
     TEMPO 2612/2614 2SM BR BKN005 
     FM261400 02006KT P6SM SCT012 BKN050 
     TEMPO 2614/2618 P6SM -SHRA BKN012 OVC040 
     FM261800 07008KT P6SM FEW020 BKN050 
     TEMPO 2618/2624 P6SM -SHRA RMK FCST BASED ON AUTO OBS. NXT FCST BY 261800Z
       
TAF CYPQ 260938Z 2610/2622 VRB03KT P6SM BKN220 
     FM261800 20008KT P6SM SCT030 
     TEMPO 2618/2620 P6SM -SHRA BKN030 
     PROB30 2618/2620 VRB15G25KT 2SM TSRA BR BKN030CB 
     FM262000 20008KT P6SM -SHRA BKN050 BKN080 
     PROB40 2620/2622 VRB15G25KT 2SM TSRA BR OVC050CB RMK FCST BASED ON AUTO OBS. NXT FCST BY 261400Z
       
TAF CYPL 261238Z 2613/2701 10010G20KT 4SM BR OVC005 
     TEMPO 2613/2618 P6SM NSW OVC008 
     FM261800 10010G20KT P6SM OVC012 
     TEMPO 2618/2623 P6SM -SHRA OVC008 
     FM262300 10008KT P6SM OVC010 
     TEMPO 2623/2701 5SM -DZ BR OVC007 RMK NXT FCST BY 262000Z
       
TAF CYIO 261238Z 2613/2701 22006KT P6SM BKN030 
     TEMPO 2613/2701 SCT030 RMK FCST BASED ON AUTO OBS. NXT FCST BY 261900Z
       
TAF CYZT 261238Z 2613/2701 VRB03KT P6SM BKN030 OVC100 
     TEMPO 2616/2619 P6SM -RA BKN030 OVC050 
     FM261900 18008G18KT P6SM -RA SCT020 OVC040 
     TEMPO 2619/2701 4SM -RA BR BKN020 OVC040 
     BECMG 2620/2622 14010G20KT RMK NXT FCST BY 261900Z
       
TAF CYPA 261239Z 2613/2701 08005KT P6SM SCT002 OVC010 
     TEMPO 2613/2615 2SM -DZ BR OVC002 
     FM261600 16008KT P6SM SCT012 BKN100 
     TEMPO 2616/2618 BKN012 OVC100 
     FM262200 26012KT P6SM -SHRA BKN060 
     PROB30 2622/2701 VRB15G25KT 4SM TSRA BR OVC040CB RMK NXT FCST BY 261900Z
       
TAF AMD CYXS 261325Z 2613/2701 17005KT P6SM SKC 
     FM261700 20008KT P6SM FEW060 SCT200 
     FM262100 21010KT P6SM BKN060 BKN200 RMK FCST BASED ON AUTO OBS. NXT FCST BY 261900Z
       
TAF CYPR 261238Z 2613/2701 15008KT P6SM -RA OVC030 
     TEMPO 2613/2620 3SM -SHRA BR BKN015 OVC030 
     BECMG 2615/2617 15015G25KT 
     FM262000 14020G30KT P6SM -RA OVC030 
     TEMPO 2620/2701 4SM -RA BR OVC020 RMK FCST BASED ON AUTO OBS. NXT FCST BY 261900Z
       
TAF AMD CYPX 261204Z 2612/2624 32010KT P6SM OVC020 
     TEMPO 2612/2624 P6SM -SN OVC008 
     BECMG 2619/2621 22010KT RMK FCST BASED ON AUTO OBS. NXT FCST BY 261800Z
       
TAF CYVM 261238Z 2613/2701 36010KT P6SM SCT015 OVC030 
     TEMPO 2613/2701 5SM -SN BR OVC015 
     BECMG 2621/2623 VRB03KT RMK FCST BASED ON AUTO OBS. NXT FCST BY 261900Z
       
TAF CYQB 261138Z 2612/2712 07007KT P6SM FEW007 OVC080 
     FM261400 07008KT P6SM FEW040 BKN240 
     FM270000 05008KT P6SM SKC 
     BECMG 2710/2712 07010G20KT RMK NXT FCST BY 261800Z
       
TAF CYQZ 261138Z 2612/2624 VRB03KT P6SM SCT002 
     TEMPO 2612/2616 1SM BR BKN002 
     FM261600 VRB03KT P6SM FEW200 
     FM262100 VRB03KT P6SM FEW040 BKN120 RMK FCST BASED ON AUTO OBS. NXT FCST BY 261900Z
       
TAF AMD CYRT 261216Z 2612/2624 15015KT P6SM BKN010 OVC080 
     TEMPO 2612/2620 5SM -SN OVC005 
     FM262000 18020KT P6SM OVC012 
     TEMPO 2620/2624 5SM -FZRA BR OVC008 RMK NXT FCST BY 261800Z
       
TAF CYQF 261138Z 2612/2624 34015G25KT P6SM SCT120 
     FM261600 36012KT P6SM FEW120 
     BECMG 2619/2621 09008KT RMK NXT FCST BY 261800Z
       
TAF CYRL 261041Z 2611/2623 12005KT P6SM FEW006 SCT050 BKN080 
     TEMPO 2611/2614 2SM -SHRA BR BKN006 OVC050 
     PROB30 2611/2614 1/2SM FG OVC002 
     FM261400 VRB03KT P6SM FEW008 SCT050 BKN080 
     TEMPO 2614/2618 5SM -SHRA BR BKN008 OVC050 
     FM261800 27006KT P6SM SCT015 BKN040 
     TEMPO 2618/2623 P6SM -SHRA BKN015 BKN040 RMK NXT FCST BY 261400Z
       
TAF CYQR 261151Z 2612/2712 20006KT P6SM SKC 
     PROB30 2612/2614 1SM BR 
     FM262200 19010KT P6SM BKN100 
     PROB30 2622/2704 VRB15G25KT 4SM TSRA OVC060CB 
     FM270400 32010KT P6SM BKN060 
     FM271000 34010KT P6SM SCT060 RMK NXT FCST BY 261800Z
       
TAF AMD CYRB 261243Z 2612/2712 29005KT P6SM SCT030 
     TEMPO 2612/2617 2SM -SN BKN010 
     PROB30 2612/2617 1/2SM -SN FZFG OVC006 
     FM261700 34010KT P6SM OVC025 
     TEMPO 2617/2712 2SM BR OVC008 RMK NXT FCST BY 261800Z
       
TAF CYRJ 261138Z 2612/2624 32008KT P6SM FEW100 BKN220 
     BECMG 2616/2618 03010KT RMK NXT FCST BY 261400Z
       
TAF CYUY 261138Z 2612/2624 06008KT P6SM FEW050 BKN220 RMK NXT FCST BY 261800Z
       
TAF CYSJ 261139Z 2612/2624 VRB03KT P6SM SCT006 BKN025 OVC100 
     TEMPO 2612/2614 4SM -SHRA BR BKN006 OVC050 
     FM261400 36010KT P6SM SCT012 BKN080 
     TEMPO 2614/2617 5SM -SHRA BR BKN012 OVC080 
     FM261700 33010G20KT P6SM FEW030 RMK NXT FCST BY 261800Z
       
TAF CYZP 261238Z 2613/2701 17010KT P6SM -RA SCT040 OVC080 
     TEMPO 2613/2615 5SM -SHRA BR SCT020 OVC040 
     FM261500 15020G30KT P6SM -RA SCT020 OVC040 
     TEMPO 2615/2620 3SM -SHRA BR SCT008 BKN020 OVC040 
     FM262000 18012G22KT P6SM -RA SCT015 OVC030 
     TEMPO 2620/2701 4SM -RA BR BKN015 OVC030 RMK FCST BASED ON AUTO OBS. NXT FCST BY 261900Z
       
TAF CYZR 260739Z 2608/2620 20006KT P6SM OVC220 
     FM260900 21008KT P6SM SCT090 BKN160 
     BECMG 2614/2616 25008KT RMK FCST BASED ON AUTO OBS. NXT FCST BY 261400Z
       
TAF CYXE 261151Z 2612/2712 VRB03KT P6SM FEW080 
     TEMPO 2612/2618 2SM BR 
     PROB30 2612/2615 1/2SM FG 
     FM261800 16012KT P6SM BKN080 
     PROB30 2621/2624 VRB15G30KT 4SM TSRA OVC060CB 
     FM270100 32010KT P6SM FEW100 RMK NXT FCST BY 261800Z
       
TAF AMD CYAM 260941Z 2609/2620 VRB03KT 6SM BR SCT005 BKN050 
     TEMPO 2609/2614 1/2SM FG BKN005 
     PROB30 2609/2612 2SM TSRA BR BKN050CB 
     FM261400 VRB03KT P6SM SCT010 BKN030 
     TEMPO 2614/2617 BKN010 
     FM261800 10005KT P6SM BKN040 RMK NXT FCST BY 261400Z
       
TAF CYKL 260738Z 2608/2620 34010G20KT P6SM SCT012 OVC080 
     TEMPO 2608/2612 BKN012 OVC080 
     FM261200 36012G22KT P6SM BKN020 
     TEMPO 2612/2620 SCT020 RMK FCST BASED ON AUTO OBS. NXT FCST BY 261400Z
       
TAF CYZV 261139Z 2612/2712 VRB03KT 1/4SM FG VV002 
     BECMG 2612/2614 P6SM NSW SCT012 
     FM261400 26008KT P6SM SCT012 
     TEMPO 2614/2616 4SM BR BKN012 
     FM261600 30010KT P6SM BKN030 
     FM270000 36007KT P6SM FEW030 RMK NXT FCST BY 261800Z
       
TAF CYSC 261041Z 2611/2623 VRB03KT P6SM SCT015 BKN070 
     TEMPO 2611/2612 P6SM -SHRA BKN015 OVC070 
     FM261200 27005KT P6SM SCT015 BKN070 
     TEMPO 2612/2617 3SM -SHRA BR BKN015 OVC040 
     PROB30 2612/2617 VRB15G25KT 2SM TSRA BR BKN008 OVC040CB 
     FM261700 31008KT P6SM FEW040 BKN070 
     FM262000 04010KT P6SM FEW080 BKN200 RMK FCST BASED ON AUTO OBS. NXT FCST BY 261800Z
       
TAF AMD CYXL 261028Z 2610/2620 09005KT 6SM BR FEW003 SCT050 BKN080 
     TEMPO 2610/2614 2SM -SHRA BR BKN003 OVC050 
     PROB30 2610/2614 1/2SM TSRA FG VV002 
     FM261400 11005KT P6SM SCT012 SCT100 
     TEMPO 2614/2616 BKN012 BKN100 
     FM261600 23008KT P6SM SCT040 BKN080 
     TEMPO 2616/2620 P6SM -SHRA BKN040 BKN080 
     PROB30 2618/2620 VRB15G30KT 2SM TSRA BR OVC040CB RMK NXT FCST BY 261400Z
       
TAF CYZH 261238Z 2613/2701 26015G25KT P6SM SKC RMK FCST BASED ON AUTO OBS. NXT FCST BY 261900Z
       
TAF AMD CYAY 261007Z 2610/2620 06009KT 4SM -RASN OVC004 
     TEMPO 2610/2613 P6SM NSW OVC010 
     FM261300 08015G25KT 2SM -SN BR BKN006 OVC010 
     TEMPO 2613/2620 6SM -RASN SCT006 OVC010 RMK FCST BASED ON AUTO OBS. NXT FCST BY 261400Z
       
TAF CYSN 261238Z 2613/2701 23006KT P6SM BKN080 
     BECMG 2613/2615 22010KT 
     FM262100 23012KT P6SM BKN080 
     PROB30 2621/2701 2SM +TSRA BR BKN060CB RMK NXT FCST BY 262000Z
       
TAF AMD CYYT 261211Z 2612/2712 27012KT 1/2SM -DZ FG VV002 
     BECMG 2612/2614 P6SM NSW SCT004 BKN015 
     FM261400 28010KT P6SM SCT007 BKN015 
     TEMPO 2614/2622 BKN007 OVC015 
     FM262200 05008KT 6SM -DZ BR OVC005 
     FM270100 02009KT 3SM -DZ BR OVC003 
     FM270500 36012KT 1/2SM -RA FG VV002 
     BECMG 2705/2707 35018G28KT 
     FM271100 35020G30KT 6SM BR OVC005 RMK NXT FCST BY 261800Z
       
TAF CYJT 261138Z 2612/2712 07005KT P6SM OVC015 
     TEMPO 2612/2614 4SM -DZ BR BKN009 OVC015 
     FM261400 28008KT P6SM BKN020 
     TEMPO 2614/2620 BKN030 
     FM262000 31012KT P6SM BKN050 
     FM270000 32010KT P6SM BKN012 OVC060 
     BECMG 2704/2706 35006KT SCT015 RMK NXT FCST BY 261800Z
       
TAF AMD CYSB 260940Z 2609/2620 26005KT 6SM BR FEW008 BKN030 
     TEMPO 2609/2614 1/2SM FG BKN008 
     FM261400 06008KT P6SM BKN030 
     PROB30 2617/2620 2SM TSRA BR BKN040CB RMK NXT FCST BY 261400Z
       
TAF CYYN 261151Z 2612/2624 14008KT P6SM SKC 
     FM261500 18015KT P6SM SCT080 
     TEMPO 2615/2618 VRB15G25KT P6SM -SHRA BKN080 
     FM261800 28010KT P6SM BKN080 
     PROB30 2618/2624 VRB20G30KT 4SM TSRA BKN060CB RMK FCST BASED ON AUTO OBS. NXT FCST BY 261800Z
       
TAF AMD CYQY 261217Z 2612/2624 05008KT P6SM SCT005 OVC030 
     TEMPO 2612/2622 21/2SM -SHRA BR BKN005 OVC030 
     FM262200 35012KT P6SM SCT008 OVC015 RMK NXT FCST BY 261800Z
       
TAF CYYH 261138Z 2612/2624 VRB03KT P6SM FEW090 
     TEMPO 2612/2618 1SM BR BKN008 
     FM261800 09010KT P6SM OVC025 
     TEMPO 2618/2624 5SM -SN BR BKN015 OVC030 RMK NXT FCST BY 261800Z
       
TAF CYXT 261238Z 2613/2701 16015G25KT P6SM FEW015 BKN060 OVC200 
     TEMPO 2613/2701 5SM -SHRA BR SCT015 BKN030 OVC060 RMK NXT FCST BY 261900Z
       
TAF CYQD 261239Z 2613/2701 VRB03KT 3/4SM -RA BR OVC004 
     TEMPO 2613/2616 6SM BR OVC008 
     FM261600 30006KT 4SM -RA BR OVC006 
     TEMPO 2616/2620 P6SM NSW OVC012 
     FM262000 26010KT P6SM OVC020 
     TEMPO 2620/2624 OVC025 
     FM270000 22006KT P6SM SCT030 RMK FCST BASED ON AUTO OBS. NXT FCST BY 261900Z
       
TAF CYTH 261239Z 2613/2701 08006KT P6SM OVC030 
     TEMPO 2613/2621 4SM -RA BR OVC012 
     BECMG 2621/2623 VRB03KT RMK NXT FCST BY 261900Z
       
TAF AMD CYQT 261043Z 2610/2620 09005KT 2SM BR OVC100 
     TEMPO 2610/2612 1/4SM -SHRA FG VV002 
     PROB30 2610/2612 2SM TSRA BR SCT003 OVC090CB 
     FM261200 09006KT 1/2SM FG VV002 
     TEMPO 2612/2614 6SM BR FEW002 SCT120 
     FM261400 09008KT P6SM FEW003 OVC007 
     BECMG 2614/2616 FEW010 BKN090 
     FM261600 09008KT P6SM FEW010 BKN090 
     TEMPO 2616/2620 P6SM -SHRA RMK NXT FCST BY 261400Z
       
TAF CYTS 260738Z 2608/2620 06008KT P6SM SCT020 BKN060 
     TEMPO 2608/2614 5SM -SHRA BR BKN020 BKN050 
     FM261400 08008KT P6SM BKN060 
     FM261800 09010KT P6SM BKN090 RMK NXT FCST BY 261400Z
       
TAF CYKZ 261138Z 2612/2624 VRB03KT P6SM BKN200 
     FM261500 10005KT P6SM SCT080 BKN160 
     BECMG 2615/2617 18010KT 
     FM262000 18015KT P6SM BKN080 
     PROB30 2620/2624 VRB15G25KT 1SM +TSRA BKN020 OVC060CB RMK NXT FCST BY 261800Z
       
TAF CYTZ 260739Z 2608/2708 26005KT P6SM BKN210 
     FM261100 24008KT P6SM SCT080 BKN160 
     BECMG 2616/2618 18012KT 
     FM262000 20010G20KT P6SM BKN070 
     PROB30 2620/2624 VRB15G25KT 1SM +TSRA BKN020 OVC060CB 
     FM270000 02006KT P6SM FEW060 BKN100 
     FM270300 05006KT P6SM FEW015 FEW080 
     FM270600 06008KT 6SM BR SCT008 RMK FCST BASED ON AUTO OBS. NXT FCST BY 261400Z
       
TAF CYYZ 261138Z 2612/2718 31005KT P6SM SCT180 BKN260 
     FM261500 09006KT P6SM SCT080 BKN160 
     BECMG 2615/2617 20012KT 
     FM262000 18015KT P6SM BKN080 
     PROB30 2620/2702 VRB15G25KT 1SM +TSRA BKN020 OVC060CB 
     FM270300 05006KT P6SM FEW060 BKN100 
     FM270600 07006KT 6SM BR FEW006 SCT012 
     FM270800 09006KT 11/2SM BR OVC004 
     FM271500 08005KT P6SM SCT012 BKN030 
     BECMG 2715/2717 16008KT SCT050 RMK NXT FCST BY 261500Z
       
TAF CYTR 261130Z 2612/2712 22008KT P6SM SCT080 BKN200 
     TEMPO 2612/2619 BKN080 BKN200 
     FM261900 23010KT P6SM BKN080 
     PROB40 2619/2624 VRB15G25KT 1SM +TSRA BR BKN030 BKN060CB 
     FM270200 06008KT P6SM FEW020 SCT080 RMK NXT FCST BY 261800Z
       
TAF CYRQ 260738Z 2608/2620 VRB03KT P6SM SCT050 BKN100 
     TEMPO 2608/2610 6SM -SHRA BR BKN050 OVC100 
     BECMG 2608/2610 02010KT 
     FM261000 02010G20KT P6SM BKN060 BKN100 OVC220 
     FM261400 02012KT P6SM FEW080 BKN220 RMK FCST BASED ON AUTO OBS. NXT FCST BY 261400Z
       
TAF CYVO 261138Z 2612/2624 02010KT P6SM FEW070 BKN170 RMK NXT FCST BY 261800Z
       
TAF CYVR 261138Z 2612/2718 10010KT P6SM SCT020 BKN030 
     TEMPO 2612/2620 BKN020 
     FM262000 16010KT P6SM SCT040 BKN120 
     FM270400 11010KT P6SM OVC080 RMK NXT FCST BY 261500Z
       
TAF CYYJ 261138Z 2612/2712 29010KT P6SM FEW100 SCT180 
     BECMG 2616/2618 12008KT 
     FM262100 12008KT P6SM FEW040 BKN120 
     FM270200 18007KT P6SM SCT050 BKN100 
     BECMG 2704/2706 28007KT RMK NXT FCST BY 261800Z
       
TAF AMD CYWK 260915Z 2609/2620 01006KT P6SM -RA OVC015 
     TEMPO 2609/2613 11/2SM -SNRA OVC006 
     FM261300 35012G22KT P6SM SCT006 BKN015 
     TEMPO 2613/2620 BKN025 
     BECMG 2617/2619 36010KT RMK FCST BASED ON AUTO OBS. NXT FCST BY 261400Z
       
TAF CYQH 261138Z 2612/2624 VRB03KT P6SM FEW120 
     FM262100 24008KT P6SM BKN070 RMK NXT FCST BY 261800Z
       
TAF CYXZ 261238Z 2613/2624 VRB03KT P6SM SCT030 BKN100 
     TEMPO 2613/2617 5SM -SHRA BR BKN020 OVC030 
     FM261700 08008KT P6SM BKN030 
     TEMPO 2617/2621 5SM -SHRA BR BKN020 
     PROB30 2617/2621 2SM TSRA BR BKN020 OVC030CB RMK NXT FCST BY 262000Z
       
TAF CYXY 261138Z 2612/2712 VRB03KT P6SM FEW060 
     FM261800 16012KT P6SM SCT060 BKN200 
     TEMPO 2618/2622 BKN060 
     FM262200 16012G22KT P6SM BKN060 
     TEMPO 2622/2703 P6SM -SHRA OVC060 
     FM270300 15012G22KT P6SM BKN060 
     FM270900 18008KT P6SM SCT030 BKN120 
     TEMPO 2709/2712 P6SM -SHRA BKN030 RMK NXT FCST BY 261800Z
       
TAF CYVV 261046Z 2611/2623 VRB03KT P6SM SCT040 BKN120 
     FM261200 VRB03KT P6SM SCT012 
     TEMPO 2612/2617 BKN012 
     FM261700 25006KT P6SM BKN060 
     PROB30 2618/2621 VRB15G25KT 2SM +TSRA BR BKN020 BKN050CB 
     FM262100 08008KT P6SM BKN060 
     PROB30 2621/2623 VRB15G25KT 2SM +TSRA BR BKN008 BKN050CB RMK NXT FCST BY 261400Z
       
TAF CYWL 261238Z 2613/2701 VRB03KT P6SM SCT040 
     PROB30 2613/2616 1/2SM FG BKN003 
     FM262000 VRB03KT P6SM BKN080 RMK NXT FCST BY 261900Z
       
TAF CYQG 261138Z 2612/2712 23007KT P6SM FEW070 BKN160 
     TEMPO 2612/2618 P6SM -SHRA 
     FM261800 21015G25KT P6SM -SHRA BKN060 OVC100 
     PROB30 2618/2624 2SM +TSRA BR BKN050CB 
     FM270000 19010KT P6SM SCT060 
     PROB30 2700/2704 VRB15G25KT 3SM TSRA BR BKN020 OVC060CB 
     FM270500 VRB03KT 6SM BR SKC 
     FM270800 VRB03KT 3SM BR BKN006 
     PROB30 2708/2712 1/2SM FG RMK NXT FCST BY 261800Z
       
TAF CYWG 261151Z 2612/2712 28006KT P6SM FEW004 SCT080 
     TEMPO 2612/2615 2SM BR BKN004 
     PROB30 2612/2615 1/2SM FG VV002 
     FM261500 30008KT P6SM BKN012 
     TEMPO 2615/2618 BKN025 
     FM261800 30012KT P6SM BKN030 
     FM262200 34012KT P6SM SCT040 
     BECMG 2702/2704 VRB03KT 
     FM270800 VRB03KT P6SM FEW004 
     PROB30 2708/2712 1/2SM FG VV002 RMK NXT FCST BY 261800Z
       
TAF CYQI 261139Z 2612/2624 28012KT P6SM BKN100 
     FM261300 24010KT P6SM SCT020 BKN080 
     TEMPO 2613/2623 4SM -SHRA BR BKN020 OVC080 
     BECMG 2616/2618 30008KT 
     FM262300 34008KT P6SM SCT060 RMK NXT FCST BY 261800Z
       
TAF CYZF 261138Z 2612/2712 08005KT P6SM FEW060 SCT220 
     FM262000 27008KT P6SM BKN040 
     TEMPO 2620/2701 P6SM -SHRA BKN020 OVC040 
     FM270100 30005KT P6SM SCT060 
     BECMG 2707/2709 11010KT RMK NXT FCST BY 261800Z
       
TAF CYQV 261151Z 2612/2624 30006KT 1SM BR OVC002 
     TEMPO 2612/2615 6SM BR OVC008 
     FM261500 32008KT 4SM BR BKN006 
     TEMPO 2615/2618 P6SM NSW BKN012 
     FM261800 32006KT P6SM BKN020 
     TEMPO 2618/2624 SCT020 RMK FCST BASED ON AUTO OBS. NXT FCST BY 261800Z